<?xml version="1.0" encoding="UTF-8" standalone="no" ?>
<gpx xmlns="http://www.topografix.com/GPX/1/1" xmlns:xsi="http://www.w3.org/2001/XMLSchema-instance" xsi:schemaLocation="http://www.topografix.com/GPX/1/1 http://www.topografix.com/GPX/1/1/gpx.xsd" version="1.1" creator="VisuGPX - https://www.visugpx.com">
  <metadata>
    <name>boucle st laurent des batons 10km</name>
  </metadata>
  <trk>
    <name><![CDATA[randogps24-376]]></name>
    <trkseg>
      <trkpt lat="44.95932" lon="0.73682">
        <ele>125.11</ele>
        <time>2017-08-11T12:49:46Z</time>
      </trkpt>
      <trkpt lat="44.95932" lon="0.73682">
        <ele>126.55</ele>
        <time>2017-08-11T12:49:47Z</time>
      </trkpt>
      <trkpt lat="44.95932" lon="0.73682">
        <ele>125.59</ele>
        <time>2017-08-11T12:49:48Z</time>
      </trkpt>
      <trkpt lat="44.95932" lon="0.73683">
        <ele>125.59</ele>
        <time>2017-08-11T12:50:20Z</time>
      </trkpt>
      <trkpt lat="44.95932" lon="0.73683">
        <ele>125.59</ele>
        <time>2017-08-11T12:50:45Z</time>
      </trkpt>
      <trkpt lat="44.95933" lon="0.73684">
        <ele>126.07</ele>
        <time>2017-08-11T12:51:06Z</time>
      </trkpt>
      <trkpt lat="44.95933" lon="0.73684">
        <ele>127.03</ele>
        <time>2017-08-11T12:51:31Z</time>
      </trkpt>
      <trkpt lat="44.95933" lon="0.73683">
        <ele>127.99</ele>
        <time>2017-08-11T12:51:46Z</time>
      </trkpt>
      <trkpt lat="44.95932" lon="0.73683">
        <ele>126.55</ele>
        <time>2017-08-11T12:51:59Z</time>
      </trkpt>
      <trkpt lat="44.95931" lon="0.73683">
        <ele>126.55</ele>
        <time>2017-08-11T12:52:18Z</time>
      </trkpt>
      <trkpt lat="44.95926" lon="0.73686">
        <ele>127.03</ele>
        <time>2017-08-11T12:52:26Z</time>
      </trkpt>
      <trkpt lat="44.95923" lon="0.73699">
        <ele>127.99</ele>
        <time>2017-08-11T12:52:37Z</time>
      </trkpt>
      <trkpt lat="44.95922" lon="0.73703">
        <ele>127.51</ele>
        <time>2017-08-11T12:52:42Z</time>
      </trkpt>
      <trkpt lat="44.95921" lon="0.73706">
        <ele>128.47</ele>
        <time>2017-08-11T12:52:45Z</time>
      </trkpt>
      <trkpt lat="44.95916" lon="0.7372">
        <ele>128.95</ele>
        <time>2017-08-11T12:52:59Z</time>
      </trkpt>
      <trkpt lat="44.95909" lon="0.73737">
        <ele>129.43</ele>
        <time>2017-08-11T12:53:09Z</time>
      </trkpt>
      <trkpt lat="44.95905" lon="0.73755">
        <ele>130.4</ele>
        <time>2017-08-11T12:53:22Z</time>
      </trkpt>
      <trkpt lat="44.95905" lon="0.7376">
        <ele>130.4</ele>
        <time>2017-08-11T12:53:25Z</time>
      </trkpt>
      <trkpt lat="44.95903" lon="0.73766">
        <ele>130.4</ele>
        <time>2017-08-11T12:53:28Z</time>
      </trkpt>
      <trkpt lat="44.95904" lon="0.73785">
        <ele>130.4</ele>
        <time>2017-08-11T12:53:41Z</time>
      </trkpt>
      <trkpt lat="44.95906" lon="0.73791">
        <ele>130.4</ele>
        <time>2017-08-11T12:53:55Z</time>
      </trkpt>
      <trkpt lat="44.95908" lon="0.73787">
        <ele>130.4</ele>
        <time>2017-08-11T12:54:12Z</time>
      </trkpt>
      <trkpt lat="44.95909" lon="0.73786">
        <ele>130.4</ele>
        <time>2017-08-11T12:54:33Z</time>
      </trkpt>
      <trkpt lat="44.95911" lon="0.73787">
        <ele>128.95</ele>
        <time>2017-08-11T12:54:44Z</time>
      </trkpt>
      <trkpt lat="44.95914" lon="0.73786">
        <ele>128.47</ele>
        <time>2017-08-11T12:55:05Z</time>
      </trkpt>
      <trkpt lat="44.95914" lon="0.73789">
        <ele>127.51</ele>
        <time>2017-08-11T12:55:14Z</time>
      </trkpt>
      <trkpt lat="44.95922" lon="0.73791">
        <ele>126.07</ele>
        <time>2017-08-11T12:55:26Z</time>
      </trkpt>
      <trkpt lat="44.95927" lon="0.7379">
        <ele>126.07</ele>
        <time>2017-08-11T12:55:37Z</time>
      </trkpt>
      <trkpt lat="44.9594" lon="0.73792">
        <ele>125.59</ele>
        <time>2017-08-11T12:55:45Z</time>
      </trkpt>
      <trkpt lat="44.9596" lon="0.7379">
        <ele>124.63</ele>
        <time>2017-08-11T12:55:57Z</time>
      </trkpt>
      <trkpt lat="44.95973" lon="0.73793">
        <ele>124.63</ele>
        <time>2017-08-11T12:56:09Z</time>
      </trkpt>
      <trkpt lat="44.95979" lon="0.73794">
        <ele>124.15</ele>
        <time>2017-08-11T12:56:14Z</time>
      </trkpt>
      <trkpt lat="44.95986" lon="0.7379">
        <ele>124.63</ele>
        <time>2017-08-11T12:56:22Z</time>
      </trkpt>
      <trkpt lat="44.96003" lon="0.73775">
        <ele>124.15</ele>
        <time>2017-08-11T12:56:37Z</time>
      </trkpt>
      <trkpt lat="44.96005" lon="0.73772">
        <ele>124.15</ele>
        <time>2017-08-11T12:56:40Z</time>
      </trkpt>
      <trkpt lat="44.96015" lon="0.73759">
        <ele>124.63</ele>
        <time>2017-08-11T12:56:54Z</time>
      </trkpt>
      <trkpt lat="44.96015" lon="0.73758">
        <ele>125.11</ele>
        <time>2017-08-11T12:57:02Z</time>
      </trkpt>
      <trkpt lat="44.96017" lon="0.73761">
        <ele>125.11</ele>
        <time>2017-08-11T12:57:06Z</time>
      </trkpt>
      <trkpt lat="44.96021" lon="0.73767">
        <ele>125.11</ele>
        <time>2017-08-11T12:57:12Z</time>
      </trkpt>
      <trkpt lat="44.96032" lon="0.73776">
        <ele>125.59</ele>
        <time>2017-08-11T12:57:25Z</time>
      </trkpt>
      <trkpt lat="44.96038" lon="0.73782">
        <ele>126.07</ele>
        <time>2017-08-11T12:57:34Z</time>
      </trkpt>
      <trkpt lat="44.9604" lon="0.73783">
        <ele>126.55</ele>
        <time>2017-08-11T12:57:36Z</time>
      </trkpt>
      <trkpt lat="44.96051" lon="0.73788">
        <ele>127.03</ele>
        <time>2017-08-11T12:57:48Z</time>
      </trkpt>
      <trkpt lat="44.96054" lon="0.7379">
        <ele>127.99</ele>
        <time>2017-08-11T12:57:51Z</time>
      </trkpt>
      <trkpt lat="44.96055" lon="0.73791">
        <ele>127.03</ele>
        <time>2017-08-11T12:57:53Z</time>
      </trkpt>
      <trkpt lat="44.96068" lon="0.73799">
        <ele>127.99</ele>
        <time>2017-08-11T12:58:08Z</time>
      </trkpt>
      <trkpt lat="44.9608" lon="0.73808">
        <ele>128.95</ele>
        <time>2017-08-11T12:58:21Z</time>
      </trkpt>
      <trkpt lat="44.96091" lon="0.73813">
        <ele>129.43</ele>
        <time>2017-08-11T12:58:32Z</time>
      </trkpt>
      <trkpt lat="44.96097" lon="0.73818">
        <ele>129.43</ele>
        <time>2017-08-11T12:58:39Z</time>
      </trkpt>
      <trkpt lat="44.96098" lon="0.73819">
        <ele>129.43</ele>
        <time>2017-08-11T12:58:41Z</time>
      </trkpt>
      <trkpt lat="44.96102" lon="0.73821">
        <ele>129.92</ele>
        <time>2017-08-11T12:58:44Z</time>
      </trkpt>
      <trkpt lat="44.96105" lon="0.73823">
        <ele>129.92</ele>
        <time>2017-08-11T12:58:47Z</time>
      </trkpt>
      <trkpt lat="44.96117" lon="0.73829">
        <ele>130.88</ele>
        <time>2017-08-11T12:59:01Z</time>
      </trkpt>
      <trkpt lat="44.96119" lon="0.73831">
        <ele>130.88</ele>
        <time>2017-08-11T12:59:03Z</time>
      </trkpt>
      <trkpt lat="44.96131" lon="0.73836">
        <ele>131.36</ele>
        <time>2017-08-11T12:59:15Z</time>
      </trkpt>
      <trkpt lat="44.96139" lon="0.73843">
        <ele>132.32</ele>
        <time>2017-08-11T12:59:28Z</time>
      </trkpt>
      <trkpt lat="44.96148" lon="0.7385">
        <ele>132.8</ele>
        <time>2017-08-11T12:59:37Z</time>
      </trkpt>
      <trkpt lat="44.96152" lon="0.73852">
        <ele>132.8</ele>
        <time>2017-08-11T12:59:40Z</time>
      </trkpt>
      <trkpt lat="44.96165" lon="0.73864">
        <ele>133.28</ele>
        <time>2017-08-11T12:59:53Z</time>
      </trkpt>
      <trkpt lat="44.96175" lon="0.73872">
        <ele>133.28</ele>
        <time>2017-08-11T13:00:07Z</time>
      </trkpt>
      <trkpt lat="44.96185" lon="0.7388">
        <ele>134.24</ele>
        <time>2017-08-11T13:00:16Z</time>
      </trkpt>
      <trkpt lat="44.96197" lon="0.73883">
        <ele>135.2</ele>
        <time>2017-08-11T13:00:30Z</time>
      </trkpt>
      <trkpt lat="44.96208" lon="0.73876">
        <ele>136.64</ele>
        <time>2017-08-11T13:00:42Z</time>
      </trkpt>
      <trkpt lat="44.96211" lon="0.73874">
        <ele>137.61</ele>
        <time>2017-08-11T13:00:48Z</time>
      </trkpt>
      <trkpt lat="44.96223" lon="0.73872">
        <ele>139.05</ele>
        <time>2017-08-11T13:01:02Z</time>
      </trkpt>
      <trkpt lat="44.96227" lon="0.73874">
        <ele>140.49</ele>
        <time>2017-08-11T13:01:15Z</time>
      </trkpt>
      <trkpt lat="44.96235" lon="0.73874">
        <ele>141.93</ele>
        <time>2017-08-11T13:01:27Z</time>
      </trkpt>
      <trkpt lat="44.96246" lon="0.7388">
        <ele>143.37</ele>
        <time>2017-08-11T13:01:41Z</time>
      </trkpt>
      <trkpt lat="44.96258" lon="0.73884">
        <ele>145.78</ele>
        <time>2017-08-11T13:01:57Z</time>
      </trkpt>
      <trkpt lat="44.96266" lon="0.73887">
        <ele>146.74</ele>
        <time>2017-08-11T13:02:09Z</time>
      </trkpt>
      <trkpt lat="44.96271" lon="0.7389">
        <ele>148.66</ele>
        <time>2017-08-11T13:02:22Z</time>
      </trkpt>
      <trkpt lat="44.96279" lon="0.73894">
        <ele>150.58</ele>
        <time>2017-08-11T13:02:37Z</time>
      </trkpt>
      <trkpt lat="44.96282" lon="0.73896">
        <ele>152.99</ele>
        <time>2017-08-11T13:02:55Z</time>
      </trkpt>
      <trkpt lat="44.96287" lon="0.73899">
        <ele>154.43</ele>
        <time>2017-08-11T13:03:08Z</time>
      </trkpt>
      <trkpt lat="44.96293" lon="0.73904">
        <ele>155.87</ele>
        <time>2017-08-11T13:03:19Z</time>
      </trkpt>
      <trkpt lat="44.96308" lon="0.73915">
        <ele>157.31</ele>
        <time>2017-08-11T13:03:33Z</time>
      </trkpt>
      <trkpt lat="44.96315" lon="0.7392">
        <ele>158.75</ele>
        <time>2017-08-11T13:03:50Z</time>
      </trkpt>
      <trkpt lat="44.96318" lon="0.73923">
        <ele>160.2</ele>
        <time>2017-08-11T13:04:02Z</time>
      </trkpt>
      <trkpt lat="44.96324" lon="0.73927">
        <ele>162.6</ele>
        <time>2017-08-11T13:04:18Z</time>
      </trkpt>
      <trkpt lat="44.9633" lon="0.7393">
        <ele>164.04</ele>
        <time>2017-08-11T13:04:31Z</time>
      </trkpt>
      <trkpt lat="44.96346" lon="0.73937">
        <ele>165.48</ele>
        <time>2017-08-11T13:04:42Z</time>
      </trkpt>
      <trkpt lat="44.96362" lon="0.73941">
        <ele>166.45</ele>
        <time>2017-08-11T13:04:52Z</time>
      </trkpt>
      <trkpt lat="44.9637" lon="0.73947">
        <ele>167.41</ele>
        <time>2017-08-11T13:04:59Z</time>
      </trkpt>
      <trkpt lat="44.9638" lon="0.73953">
        <ele>168.37</ele>
        <time>2017-08-11T13:05:07Z</time>
      </trkpt>
      <trkpt lat="44.96389" lon="0.73959">
        <ele>169.81</ele>
        <time>2017-08-11T13:05:21Z</time>
      </trkpt>
      <trkpt lat="44.96391" lon="0.73961">
        <ele>169.81</ele>
        <time>2017-08-11T13:05:49Z</time>
      </trkpt>
      <trkpt lat="44.96394" lon="0.73963">
        <ele>170.77</ele>
        <time>2017-08-11T13:05:56Z</time>
      </trkpt>
      <trkpt lat="44.96395" lon="0.73968">
        <ele>170.77</ele>
        <time>2017-08-11T13:05:59Z</time>
      </trkpt>
      <trkpt lat="44.96404" lon="0.73978">
        <ele>172.21</ele>
        <time>2017-08-11T13:06:12Z</time>
      </trkpt>
      <trkpt lat="44.96407" lon="0.73979">
        <ele>172.21</ele>
        <time>2017-08-11T13:06:15Z</time>
      </trkpt>
      <trkpt lat="44.96415" lon="0.73984">
        <ele>172.21</ele>
        <time>2017-08-11T13:06:23Z</time>
      </trkpt>
      <trkpt lat="44.9642" lon="0.73987">
        <ele>172.69</ele>
        <time>2017-08-11T13:06:30Z</time>
      </trkpt>
      <trkpt lat="44.96427" lon="0.73989">
        <ele>173.17</ele>
        <time>2017-08-11T13:06:43Z</time>
      </trkpt>
      <trkpt lat="44.96426" lon="0.73989">
        <ele>173.17</ele>
        <time>2017-08-11T13:07:03Z</time>
      </trkpt>
      <trkpt lat="44.96426" lon="0.73989">
        <ele>173.17</ele>
        <time>2017-08-11T13:07:35Z</time>
      </trkpt>
      <trkpt lat="44.96426" lon="0.73989">
        <ele>173.17</ele>
        <time>2017-08-11T13:07:55Z</time>
      </trkpt>
      <trkpt lat="44.96426" lon="0.73989">
        <ele>173.66</ele>
        <time>2017-08-11T13:08:25Z</time>
      </trkpt>
      <trkpt lat="44.96426" lon="0.73989">
        <ele>173.66</ele>
        <time>2017-08-11T13:08:56Z</time>
      </trkpt>
      <trkpt lat="44.96426" lon="0.73988">
        <ele>173.66</ele>
        <time>2017-08-11T13:09:24Z</time>
      </trkpt>
      <trkpt lat="44.96427" lon="0.73988">
        <ele>174.14</ele>
        <time>2017-08-11T13:09:50Z</time>
      </trkpt>
      <trkpt lat="44.96427" lon="0.73988">
        <ele>174.14</ele>
        <time>2017-08-11T13:10:16Z</time>
      </trkpt>
      <trkpt lat="44.96428" lon="0.73987">
        <ele>174.14</ele>
        <time>2017-08-11T13:10:41Z</time>
      </trkpt>
      <trkpt lat="44.96427" lon="0.73986">
        <ele>174.14</ele>
        <time>2017-08-11T13:11:00Z</time>
      </trkpt>
      <trkpt lat="44.96427" lon="0.73987">
        <ele>174.62</ele>
        <time>2017-08-11T13:11:26Z</time>
      </trkpt>
      <trkpt lat="44.96427" lon="0.73989">
        <ele>175.1</ele>
        <time>2017-08-11T13:11:43Z</time>
      </trkpt>
      <trkpt lat="44.96426" lon="0.73988">
        <ele>175.1</ele>
        <time>2017-08-11T13:12:06Z</time>
      </trkpt>
      <trkpt lat="44.96426" lon="0.73988">
        <ele>175.58</ele>
        <time>2017-08-11T13:12:43Z</time>
      </trkpt>
      <trkpt lat="44.96427" lon="0.73988">
        <ele>174.14</ele>
        <time>2017-08-11T13:12:58Z</time>
      </trkpt>
      <trkpt lat="44.96427" lon="0.73988">
        <ele>177.98</ele>
        <time>2017-08-11T13:12:59Z</time>
      </trkpt>
      <trkpt lat="44.96427" lon="0.73989">
        <ele>172.69</ele>
        <time>2017-08-11T13:13:25Z</time>
      </trkpt>
      <trkpt lat="44.96427" lon="0.73989">
        <ele>178.94</ele>
        <time>2017-08-11T13:13:27Z</time>
      </trkpt>
      <trkpt lat="44.96427" lon="0.73989">
        <ele>175.1</ele>
        <time>2017-08-11T13:13:28Z</time>
      </trkpt>
      <trkpt lat="44.96427" lon="0.73989">
        <ele>175.58</ele>
        <time>2017-08-11T13:13:49Z</time>
      </trkpt>
      <trkpt lat="44.9643" lon="0.73996">
        <ele>176.06</ele>
        <time>2017-08-11T13:14:06Z</time>
      </trkpt>
      <trkpt lat="44.96434" lon="0.74009">
        <ele>176.54</ele>
        <time>2017-08-11T13:14:18Z</time>
      </trkpt>
      <trkpt lat="44.96434" lon="0.74019">
        <ele>176.54</ele>
        <time>2017-08-11T13:14:27Z</time>
      </trkpt>
      <trkpt lat="44.96435" lon="0.7404">
        <ele>177.5</ele>
        <time>2017-08-11T13:14:40Z</time>
      </trkpt>
      <trkpt lat="44.96435" lon="0.74051">
        <ele>177.98</ele>
        <time>2017-08-11T13:14:47Z</time>
      </trkpt>
      <trkpt lat="44.96435" lon="0.74055">
        <ele>177.98</ele>
        <time>2017-08-11T13:14:50Z</time>
      </trkpt>
      <trkpt lat="44.96435" lon="0.74073">
        <ele>178.94</ele>
        <time>2017-08-11T13:15:04Z</time>
      </trkpt>
      <trkpt lat="44.96435" lon="0.74074">
        <ele>178.94</ele>
        <time>2017-08-11T13:15:05Z</time>
      </trkpt>
      <trkpt lat="44.96435" lon="0.74077">
        <ele>178.94</ele>
        <time>2017-08-11T13:15:07Z</time>
      </trkpt>
      <trkpt lat="44.96433" lon="0.74095">
        <ele>180.38</ele>
        <time>2017-08-11T13:15:20Z</time>
      </trkpt>
      <trkpt lat="44.96432" lon="0.74102">
        <ele>180.38</ele>
        <time>2017-08-11T13:15:25Z</time>
      </trkpt>
      <trkpt lat="44.96431" lon="0.74122">
        <ele>181.83</ele>
        <time>2017-08-11T13:15:39Z</time>
      </trkpt>
      <trkpt lat="44.96429" lon="0.7413">
        <ele>181.83</ele>
        <time>2017-08-11T13:15:45Z</time>
      </trkpt>
      <trkpt lat="44.96428" lon="0.74133">
        <ele>181.83</ele>
        <time>2017-08-11T13:15:47Z</time>
      </trkpt>
      <trkpt lat="44.96427" lon="0.74138">
        <ele>182.31</ele>
        <time>2017-08-11T13:15:51Z</time>
      </trkpt>
      <trkpt lat="44.96424" lon="0.74151">
        <ele>182.31</ele>
        <time>2017-08-11T13:16:00Z</time>
      </trkpt>
      <trkpt lat="44.9642" lon="0.74165">
        <ele>182.31</ele>
        <time>2017-08-11T13:16:10Z</time>
      </trkpt>
      <trkpt lat="44.96419" lon="0.74171">
        <ele>182.79</ele>
        <time>2017-08-11T13:16:25Z</time>
      </trkpt>
      <trkpt lat="44.96418" lon="0.74172">
        <ele>182.79</ele>
        <time>2017-08-11T13:16:55Z</time>
      </trkpt>
      <trkpt lat="44.9642" lon="0.74161">
        <ele>182.79</ele>
        <time>2017-08-11T13:17:11Z</time>
      </trkpt>
      <trkpt lat="44.96423" lon="0.74153">
        <ele>182.79</ele>
        <time>2017-08-11T13:17:16Z</time>
      </trkpt>
      <trkpt lat="44.96425" lon="0.74147">
        <ele>182.79</ele>
        <time>2017-08-11T13:17:20Z</time>
      </trkpt>
      <trkpt lat="44.9643" lon="0.74128">
        <ele>182.31</ele>
        <time>2017-08-11T13:17:33Z</time>
      </trkpt>
      <trkpt lat="44.96434" lon="0.74117">
        <ele>181.83</ele>
        <time>2017-08-11T13:17:51Z</time>
      </trkpt>
      <trkpt lat="44.96436" lon="0.74092">
        <ele>180.87</ele>
        <time>2017-08-11T13:18:06Z</time>
      </trkpt>
      <trkpt lat="44.96438" lon="0.74084">
        <ele>180.87</ele>
        <time>2017-08-11T13:18:22Z</time>
      </trkpt>
      <trkpt lat="44.96439" lon="0.74083">
        <ele>180.87</ele>
        <time>2017-08-11T13:18:37Z</time>
      </trkpt>
      <trkpt lat="44.9644" lon="0.74063">
        <ele>179.9</ele>
        <time>2017-08-11T13:18:50Z</time>
      </trkpt>
      <trkpt lat="44.96438" lon="0.7404">
        <ele>178.94</ele>
        <time>2017-08-11T13:19:04Z</time>
      </trkpt>
      <trkpt lat="44.9644" lon="0.74024">
        <ele>178.46</ele>
        <time>2017-08-11T13:19:16Z</time>
      </trkpt>
      <trkpt lat="44.96445" lon="0.74027">
        <ele>177.98</ele>
        <time>2017-08-11T13:19:31Z</time>
      </trkpt>
      <trkpt lat="44.96445" lon="0.74028">
        <ele>178.46</ele>
        <time>2017-08-11T13:20:04Z</time>
      </trkpt>
      <trkpt lat="44.96453" lon="0.74039">
        <ele>177.5</ele>
        <time>2017-08-11T13:20:26Z</time>
      </trkpt>
      <trkpt lat="44.96461" lon="0.74046">
        <ele>177.5</ele>
        <time>2017-08-11T13:20:45Z</time>
      </trkpt>
      <trkpt lat="44.9647" lon="0.74051">
        <ele>177.02</ele>
        <time>2017-08-11T13:21:05Z</time>
      </trkpt>
      <trkpt lat="44.96488" lon="0.7406">
        <ele>175.1</ele>
        <time>2017-08-11T13:21:21Z</time>
      </trkpt>
      <trkpt lat="44.96494" lon="0.74064">
        <ele>174.62</ele>
        <time>2017-08-11T13:21:33Z</time>
      </trkpt>
      <trkpt lat="44.96509" lon="0.74062">
        <ele>174.14</ele>
        <time>2017-08-11T13:21:47Z</time>
      </trkpt>
      <trkpt lat="44.96526" lon="0.74063">
        <ele>173.17</ele>
        <time>2017-08-11T13:21:59Z</time>
      </trkpt>
      <trkpt lat="44.96528" lon="0.74063">
        <ele>173.17</ele>
        <time>2017-08-11T13:22:01Z</time>
      </trkpt>
      <trkpt lat="44.96548" lon="0.74066">
        <ele>172.69</ele>
        <time>2017-08-11T13:22:16Z</time>
      </trkpt>
      <trkpt lat="44.96564" lon="0.74066">
        <ele>171.73</ele>
        <time>2017-08-11T13:22:29Z</time>
      </trkpt>
      <trkpt lat="44.96578" lon="0.74069">
        <ele>170.77</ele>
        <time>2017-08-11T13:22:43Z</time>
      </trkpt>
      <trkpt lat="44.96587" lon="0.7407">
        <ele>170.29</ele>
        <time>2017-08-11T13:22:55Z</time>
      </trkpt>
      <trkpt lat="44.96605" lon="0.74067">
        <ele>169.33</ele>
        <time>2017-08-11T13:23:10Z</time>
      </trkpt>
      <trkpt lat="44.96617" lon="0.74067">
        <ele>169.33</ele>
        <time>2017-08-11T13:23:21Z</time>
      </trkpt>
      <trkpt lat="44.96622" lon="0.7407">
        <ele>169.33</ele>
        <time>2017-08-11T13:23:41Z</time>
      </trkpt>
      <trkpt lat="44.96623" lon="0.74072">
        <ele>169.33</ele>
        <time>2017-08-11T13:23:44Z</time>
      </trkpt>
      <trkpt lat="44.96631" lon="0.74086">
        <ele>169.33</ele>
        <time>2017-08-11T13:23:55Z</time>
      </trkpt>
      <trkpt lat="44.96632" lon="0.74107">
        <ele>169.33</ele>
        <time>2017-08-11T13:24:09Z</time>
      </trkpt>
      <trkpt lat="44.96634" lon="0.74131">
        <ele>168.85</ele>
        <time>2017-08-11T13:24:23Z</time>
      </trkpt>
      <trkpt lat="44.9664" lon="0.74141">
        <ele>168.37</ele>
        <time>2017-08-11T13:24:35Z</time>
      </trkpt>
      <trkpt lat="44.96643" lon="0.74152">
        <ele>167.89</ele>
        <time>2017-08-11T13:24:45Z</time>
      </trkpt>
      <trkpt lat="44.96644" lon="0.74155">
        <ele>167.89</ele>
        <time>2017-08-11T13:24:47Z</time>
      </trkpt>
      <trkpt lat="44.96656" lon="0.74174">
        <ele>167.41</ele>
        <time>2017-08-11T13:25:02Z</time>
      </trkpt>
      <trkpt lat="44.96662" lon="0.74189">
        <ele>166.93</ele>
        <time>2017-08-11T13:25:14Z</time>
      </trkpt>
      <trkpt lat="44.9667" lon="0.74211">
        <ele>166.45</ele>
        <time>2017-08-11T13:25:26Z</time>
      </trkpt>
      <trkpt lat="44.96679" lon="0.74232">
        <ele>165.96</ele>
        <time>2017-08-11T13:25:40Z</time>
      </trkpt>
      <trkpt lat="44.96686" lon="0.74244">
        <ele>165.48</ele>
        <time>2017-08-11T13:25:51Z</time>
      </trkpt>
      <trkpt lat="44.9669" lon="0.7425">
        <ele>165.48</ele>
        <time>2017-08-11T13:26:01Z</time>
      </trkpt>
      <trkpt lat="44.96692" lon="0.74254">
        <ele>165</ele>
        <time>2017-08-11T13:26:04Z</time>
      </trkpt>
      <trkpt lat="44.96703" lon="0.74275">
        <ele>164.04</ele>
        <time>2017-08-11T13:26:18Z</time>
      </trkpt>
      <trkpt lat="44.9671" lon="0.74287">
        <ele>164.04</ele>
        <time>2017-08-11T13:26:32Z</time>
      </trkpt>
      <trkpt lat="44.9673" lon="0.74303">
        <ele>164.04</ele>
        <time>2017-08-11T13:26:45Z</time>
      </trkpt>
      <trkpt lat="44.96738" lon="0.74303">
        <ele>164.04</ele>
        <time>2017-08-11T13:26:56Z</time>
      </trkpt>
      <trkpt lat="44.96743" lon="0.74299">
        <ele>164.52</ele>
        <time>2017-08-11T13:27:08Z</time>
      </trkpt>
      <trkpt lat="44.9676" lon="0.74286">
        <ele>163.56</ele>
        <time>2017-08-11T13:27:22Z</time>
      </trkpt>
      <trkpt lat="44.96777" lon="0.7427">
        <ele>162.6</ele>
        <time>2017-08-11T13:27:36Z</time>
      </trkpt>
      <trkpt lat="44.9679" lon="0.74252">
        <ele>163.08</ele>
        <time>2017-08-11T13:27:50Z</time>
      </trkpt>
      <trkpt lat="44.96791" lon="0.74251">
        <ele>163.08</ele>
        <time>2017-08-11T13:27:51Z</time>
      </trkpt>
      <trkpt lat="44.96801" lon="0.74243">
        <ele>163.56</ele>
        <time>2017-08-11T13:27:58Z</time>
      </trkpt>
      <trkpt lat="44.96803" lon="0.7424">
        <ele>163.56</ele>
        <time>2017-08-11T13:28:00Z</time>
      </trkpt>
      <trkpt lat="44.96809" lon="0.74228">
        <ele>163.56</ele>
        <time>2017-08-11T13:28:11Z</time>
      </trkpt>
      <trkpt lat="44.96817" lon="0.74219">
        <ele>163.56</ele>
        <time>2017-08-11T13:28:22Z</time>
      </trkpt>
      <trkpt lat="44.96818" lon="0.74218">
        <ele>163.08</ele>
        <time>2017-08-11T13:28:23Z</time>
      </trkpt>
      <trkpt lat="44.96826" lon="0.7421">
        <ele>162.6</ele>
        <time>2017-08-11T13:28:31Z</time>
      </trkpt>
      <trkpt lat="44.9684" lon="0.74196">
        <ele>162.12</ele>
        <time>2017-08-11T13:28:44Z</time>
      </trkpt>
      <trkpt lat="44.96852" lon="0.74182">
        <ele>161.16</ele>
        <time>2017-08-11T13:28:58Z</time>
      </trkpt>
      <trkpt lat="44.96857" lon="0.74178">
        <ele>160.2</ele>
        <time>2017-08-11T13:29:10Z</time>
      </trkpt>
      <trkpt lat="44.96862" lon="0.74171">
        <ele>159.24</ele>
        <time>2017-08-11T13:29:20Z</time>
      </trkpt>
      <trkpt lat="44.96882" lon="0.74166">
        <ele>157.31</ele>
        <time>2017-08-11T13:29:34Z</time>
      </trkpt>
      <trkpt lat="44.96898" lon="0.7417">
        <ele>156.35</ele>
        <time>2017-08-11T13:29:47Z</time>
      </trkpt>
      <trkpt lat="44.96902" lon="0.74173">
        <ele>155.87</ele>
        <time>2017-08-11T13:29:52Z</time>
      </trkpt>
      <trkpt lat="44.96914" lon="0.74177">
        <ele>154.91</ele>
        <time>2017-08-11T13:30:05Z</time>
      </trkpt>
      <trkpt lat="44.9692" lon="0.74183">
        <ele>154.43</ele>
        <time>2017-08-11T13:30:11Z</time>
      </trkpt>
      <trkpt lat="44.96934" lon="0.74191">
        <ele>154.43</ele>
        <time>2017-08-11T13:30:22Z</time>
      </trkpt>
      <trkpt lat="44.96939" lon="0.74192">
        <ele>154.91</ele>
        <time>2017-08-11T13:30:26Z</time>
      </trkpt>
      <trkpt lat="44.96947" lon="0.74198">
        <ele>154.91</ele>
        <time>2017-08-11T13:30:38Z</time>
      </trkpt>
      <trkpt lat="44.96961" lon="0.74207">
        <ele>154.43</ele>
        <time>2017-08-11T13:30:50Z</time>
      </trkpt>
      <trkpt lat="44.96978" lon="0.74215">
        <ele>153.95</ele>
        <time>2017-08-11T13:31:02Z</time>
      </trkpt>
      <trkpt lat="44.96981" lon="0.74219">
        <ele>153.47</ele>
        <time>2017-08-11T13:31:10Z</time>
      </trkpt>
      <trkpt lat="44.96982" lon="0.7422">
        <ele>153.47</ele>
        <time>2017-08-11T13:31:12Z</time>
      </trkpt>
      <trkpt lat="44.96991" lon="0.74234">
        <ele>152.03</ele>
        <time>2017-08-11T13:31:25Z</time>
      </trkpt>
      <trkpt lat="44.96998" lon="0.74245">
        <ele>151.06</ele>
        <time>2017-08-11T13:31:38Z</time>
      </trkpt>
      <trkpt lat="44.97008" lon="0.74251">
        <ele>149.62</ele>
        <time>2017-08-11T13:31:49Z</time>
      </trkpt>
      <trkpt lat="44.97018" lon="0.74259">
        <ele>148.66</ele>
        <time>2017-08-11T13:32:00Z</time>
      </trkpt>
      <trkpt lat="44.97034" lon="0.74267">
        <ele>147.22</ele>
        <time>2017-08-11T13:32:12Z</time>
      </trkpt>
      <trkpt lat="44.97047" lon="0.74268">
        <ele>145.78</ele>
        <time>2017-08-11T13:32:23Z</time>
      </trkpt>
      <trkpt lat="44.97056" lon="0.74265">
        <ele>145.3</ele>
        <time>2017-08-11T13:32:28Z</time>
      </trkpt>
      <trkpt lat="44.97068" lon="0.74265">
        <ele>144.34</ele>
        <time>2017-08-11T13:32:37Z</time>
      </trkpt>
      <trkpt lat="44.97081" lon="0.74262">
        <ele>143.37</ele>
        <time>2017-08-11T13:32:51Z</time>
      </trkpt>
      <trkpt lat="44.97085" lon="0.74261">
        <ele>142.89</ele>
        <time>2017-08-11T13:32:54Z</time>
      </trkpt>
      <trkpt lat="44.971" lon="0.74257">
        <ele>141.93</ele>
        <time>2017-08-11T13:33:07Z</time>
      </trkpt>
      <trkpt lat="44.97106" lon="0.74253">
        <ele>141.45</ele>
        <time>2017-08-11T13:33:15Z</time>
      </trkpt>
      <trkpt lat="44.97118" lon="0.74248">
        <ele>140.49</ele>
        <time>2017-08-11T13:33:27Z</time>
      </trkpt>
      <trkpt lat="44.97133" lon="0.74241">
        <ele>139.53</ele>
        <time>2017-08-11T13:33:42Z</time>
      </trkpt>
      <trkpt lat="44.97144" lon="0.74237">
        <ele>139.53</ele>
        <time>2017-08-11T13:33:49Z</time>
      </trkpt>
      <trkpt lat="44.97153" lon="0.74234">
        <ele>139.05</ele>
        <time>2017-08-11T13:33:57Z</time>
      </trkpt>
      <trkpt lat="44.97156" lon="0.74232">
        <ele>138.57</ele>
        <time>2017-08-11T13:34:00Z</time>
      </trkpt>
      <trkpt lat="44.9716" lon="0.74232">
        <ele>138.57</ele>
        <time>2017-08-11T13:34:05Z</time>
      </trkpt>
      <trkpt lat="44.97164" lon="0.74231">
        <ele>138.57</ele>
        <time>2017-08-11T13:34:09Z</time>
      </trkpt>
      <trkpt lat="44.97169" lon="0.74233">
        <ele>138.57</ele>
        <time>2017-08-11T13:34:12Z</time>
      </trkpt>
      <trkpt lat="44.97175" lon="0.74229">
        <ele>138.57</ele>
        <time>2017-08-11T13:34:17Z</time>
      </trkpt>
      <trkpt lat="44.97179" lon="0.7423">
        <ele>138.57</ele>
        <time>2017-08-11T13:34:20Z</time>
      </trkpt>
      <trkpt lat="44.97194" lon="0.74223">
        <ele>138.57</ele>
        <time>2017-08-11T13:34:34Z</time>
      </trkpt>
      <trkpt lat="44.97205" lon="0.74219">
        <ele>137.13</ele>
        <time>2017-08-11T13:34:47Z</time>
      </trkpt>
      <trkpt lat="44.97211" lon="0.74215">
        <ele>137.13</ele>
        <time>2017-08-11T13:34:59Z</time>
      </trkpt>
      <trkpt lat="44.97214" lon="0.74212">
        <ele>137.13</ele>
        <time>2017-08-11T13:35:32Z</time>
      </trkpt>
      <trkpt lat="44.97222" lon="0.7421">
        <ele>136.16</ele>
        <time>2017-08-11T13:35:48Z</time>
      </trkpt>
      <trkpt lat="44.97223" lon="0.74209">
        <ele>136.16</ele>
        <time>2017-08-11T13:35:49Z</time>
      </trkpt>
      <trkpt lat="44.97236" lon="0.74202">
        <ele>136.16</ele>
        <time>2017-08-11T13:35:59Z</time>
      </trkpt>
      <trkpt lat="44.97247" lon="0.74196">
        <ele>136.16</ele>
        <time>2017-08-11T13:36:08Z</time>
      </trkpt>
      <trkpt lat="44.97255" lon="0.74191">
        <ele>136.16</ele>
        <time>2017-08-11T13:36:14Z</time>
      </trkpt>
      <trkpt lat="44.9727" lon="0.74181">
        <ele>135.68</ele>
        <time>2017-08-11T13:36:27Z</time>
      </trkpt>
      <trkpt lat="44.97285" lon="0.74169">
        <ele>135.68</ele>
        <time>2017-08-11T13:36:40Z</time>
      </trkpt>
      <trkpt lat="44.97301" lon="0.74161">
        <ele>136.16</ele>
        <time>2017-08-11T13:36:52Z</time>
      </trkpt>
      <trkpt lat="44.97304" lon="0.74159">
        <ele>136.16</ele>
        <time>2017-08-11T13:36:56Z</time>
      </trkpt>
      <trkpt lat="44.97309" lon="0.74158">
        <ele>136.16</ele>
        <time>2017-08-11T13:37:11Z</time>
      </trkpt>
      <trkpt lat="44.9731" lon="0.74158">
        <ele>136.16</ele>
        <time>2017-08-11T13:37:43Z</time>
      </trkpt>
      <trkpt lat="44.97312" lon="0.74156">
        <ele>135.68</ele>
        <time>2017-08-11T13:38:00Z</time>
      </trkpt>
      <trkpt lat="44.97317" lon="0.74154">
        <ele>135.2</ele>
        <time>2017-08-11T13:38:22Z</time>
      </trkpt>
      <trkpt lat="44.97326" lon="0.74152">
        <ele>134.72</ele>
        <time>2017-08-11T13:38:35Z</time>
      </trkpt>
      <trkpt lat="44.97329" lon="0.74156">
        <ele>133.76</ele>
        <time>2017-08-11T13:38:49Z</time>
      </trkpt>
      <trkpt lat="44.97339" lon="0.74167">
        <ele>134.24</ele>
        <time>2017-08-11T13:39:02Z</time>
      </trkpt>
      <trkpt lat="44.97341" lon="0.74176">
        <ele>134.72</ele>
        <time>2017-08-11T13:39:15Z</time>
      </trkpt>
      <trkpt lat="44.97347" lon="0.74185">
        <ele>134.72</ele>
        <time>2017-08-11T13:39:25Z</time>
      </trkpt>
      <trkpt lat="44.97353" lon="0.74216">
        <ele>134.24</ele>
        <time>2017-08-11T13:39:41Z</time>
      </trkpt>
      <trkpt lat="44.97357" lon="0.74235">
        <ele>135.2</ele>
        <time>2017-08-11T13:39:52Z</time>
      </trkpt>
      <trkpt lat="44.97358" lon="0.74244">
        <ele>135.68</ele>
        <time>2017-08-11T13:39:58Z</time>
      </trkpt>
      <trkpt lat="44.97362" lon="0.74249">
        <ele>136.64</ele>
        <time>2017-08-11T13:40:08Z</time>
      </trkpt>
      <trkpt lat="44.97365" lon="0.74254">
        <ele>137.13</ele>
        <time>2017-08-11T13:40:15Z</time>
      </trkpt>
      <trkpt lat="44.97366" lon="0.74264">
        <ele>137.61</ele>
        <time>2017-08-11T13:40:24Z</time>
      </trkpt>
      <trkpt lat="44.9737" lon="0.74272">
        <ele>138.09</ele>
        <time>2017-08-11T13:40:37Z</time>
      </trkpt>
      <trkpt lat="44.97375" lon="0.7428">
        <ele>138.09</ele>
        <time>2017-08-11T13:40:45Z</time>
      </trkpt>
      <trkpt lat="44.97376" lon="0.74288">
        <ele>138.09</ele>
        <time>2017-08-11T13:40:51Z</time>
      </trkpt>
      <trkpt lat="44.97381" lon="0.74307">
        <ele>138.09</ele>
        <time>2017-08-11T13:41:03Z</time>
      </trkpt>
      <trkpt lat="44.97388" lon="0.74316">
        <ele>138.09</ele>
        <time>2017-08-11T13:41:11Z</time>
      </trkpt>
      <trkpt lat="44.97393" lon="0.74338">
        <ele>137.61</ele>
        <time>2017-08-11T13:41:22Z</time>
      </trkpt>
      <trkpt lat="44.97394" lon="0.7435">
        <ele>137.61</ele>
        <time>2017-08-11T13:41:33Z</time>
      </trkpt>
      <trkpt lat="44.97394" lon="0.74352">
        <ele>137.61</ele>
        <time>2017-08-11T13:41:35Z</time>
      </trkpt>
      <trkpt lat="44.97398" lon="0.74374">
        <ele>137.61</ele>
        <time>2017-08-11T13:41:46Z</time>
      </trkpt>
      <trkpt lat="44.97398" lon="0.74377">
        <ele>137.13</ele>
        <time>2017-08-11T13:41:49Z</time>
      </trkpt>
      <trkpt lat="44.974" lon="0.74388">
        <ele>137.61</ele>
        <time>2017-08-11T13:41:59Z</time>
      </trkpt>
      <trkpt lat="44.97402" lon="0.74391">
        <ele>137.61</ele>
        <time>2017-08-11T13:42:01Z</time>
      </trkpt>
      <trkpt lat="44.97407" lon="0.74402">
        <ele>137.61</ele>
        <time>2017-08-11T13:42:11Z</time>
      </trkpt>
      <trkpt lat="44.97409" lon="0.74408">
        <ele>137.61</ele>
        <time>2017-08-11T13:42:18Z</time>
      </trkpt>
      <trkpt lat="44.97415" lon="0.74432">
        <ele>137.61</ele>
        <time>2017-08-11T13:42:27Z</time>
      </trkpt>
      <trkpt lat="44.97415" lon="0.74434">
        <ele>137.61</ele>
        <time>2017-08-11T13:42:29Z</time>
      </trkpt>
      <trkpt lat="44.97419" lon="0.74447">
        <ele>137.13</ele>
        <time>2017-08-11T13:42:39Z</time>
      </trkpt>
      <trkpt lat="44.97423" lon="0.74456">
        <ele>137.13</ele>
        <time>2017-08-11T13:42:49Z</time>
      </trkpt>
      <trkpt lat="44.97428" lon="0.74466">
        <ele>137.13</ele>
        <time>2017-08-11T13:42:58Z</time>
      </trkpt>
      <trkpt lat="44.9743" lon="0.74478">
        <ele>137.13</ele>
        <time>2017-08-11T13:43:09Z</time>
      </trkpt>
      <trkpt lat="44.97432" lon="0.7449">
        <ele>137.13</ele>
        <time>2017-08-11T13:43:22Z</time>
      </trkpt>
      <trkpt lat="44.97438" lon="0.74503">
        <ele>137.13</ele>
        <time>2017-08-11T13:43:31Z</time>
      </trkpt>
      <trkpt lat="44.97438" lon="0.74508">
        <ele>137.13</ele>
        <time>2017-08-11T13:43:33Z</time>
      </trkpt>
      <trkpt lat="44.97441" lon="0.74528">
        <ele>137.61</ele>
        <time>2017-08-11T13:43:43Z</time>
      </trkpt>
      <trkpt lat="44.97441" lon="0.74531">
        <ele>137.61</ele>
        <time>2017-08-11T13:43:45Z</time>
      </trkpt>
      <trkpt lat="44.97445" lon="0.74547">
        <ele>137.13</ele>
        <time>2017-08-11T13:43:55Z</time>
      </trkpt>
      <trkpt lat="44.97444" lon="0.7456">
        <ele>137.13</ele>
        <time>2017-08-11T13:44:03Z</time>
      </trkpt>
      <trkpt lat="44.97447" lon="0.74575">
        <ele>137.13</ele>
        <time>2017-08-11T13:44:11Z</time>
      </trkpt>
      <trkpt lat="44.97448" lon="0.74587">
        <ele>137.13</ele>
        <time>2017-08-11T13:44:21Z</time>
      </trkpt>
      <trkpt lat="44.97449" lon="0.74592">
        <ele>137.13</ele>
        <time>2017-08-11T13:44:25Z</time>
      </trkpt>
      <trkpt lat="44.97453" lon="0.74603">
        <ele>137.61</ele>
        <time>2017-08-11T13:44:36Z</time>
      </trkpt>
      <trkpt lat="44.97454" lon="0.74617">
        <ele>137.61</ele>
        <time>2017-08-11T13:44:46Z</time>
      </trkpt>
      <trkpt lat="44.97457" lon="0.74636">
        <ele>138.09</ele>
        <time>2017-08-11T13:44:58Z</time>
      </trkpt>
      <trkpt lat="44.97461" lon="0.74657">
        <ele>138.57</ele>
        <time>2017-08-11T13:45:08Z</time>
      </trkpt>
      <trkpt lat="44.97463" lon="0.7467">
        <ele>139.05</ele>
        <time>2017-08-11T13:45:20Z</time>
      </trkpt>
      <trkpt lat="44.97464" lon="0.74672">
        <ele>139.05</ele>
        <time>2017-08-11T13:45:21Z</time>
      </trkpt>
      <trkpt lat="44.97468" lon="0.74686">
        <ele>139.05</ele>
        <time>2017-08-11T13:45:32Z</time>
      </trkpt>
      <trkpt lat="44.97468" lon="0.74698">
        <ele>138.57</ele>
        <time>2017-08-11T13:45:45Z</time>
      </trkpt>
      <trkpt lat="44.9747" lon="0.74708">
        <ele>137.61</ele>
        <time>2017-08-11T13:45:58Z</time>
      </trkpt>
      <trkpt lat="44.97472" lon="0.74715">
        <ele>137.13</ele>
        <time>2017-08-11T13:46:11Z</time>
      </trkpt>
      <trkpt lat="44.97473" lon="0.74723">
        <ele>136.16</ele>
        <time>2017-08-11T13:46:24Z</time>
      </trkpt>
      <trkpt lat="44.97474" lon="0.74729">
        <ele>134.72</ele>
        <time>2017-08-11T13:46:35Z</time>
      </trkpt>
      <trkpt lat="44.97474" lon="0.74739">
        <ele>133.28</ele>
        <time>2017-08-11T13:46:49Z</time>
      </trkpt>
      <trkpt lat="44.97482" lon="0.74764">
        <ele>132.8</ele>
        <time>2017-08-11T13:47:06Z</time>
      </trkpt>
      <trkpt lat="44.97484" lon="0.74769">
        <ele>132.8</ele>
        <time>2017-08-11T13:47:29Z</time>
      </trkpt>
      <trkpt lat="44.97485" lon="0.7477">
        <ele>133.28</ele>
        <time>2017-08-11T13:47:57Z</time>
      </trkpt>
      <trkpt lat="44.97485" lon="0.74771">
        <ele>133.28</ele>
        <time>2017-08-11T13:48:00Z</time>
      </trkpt>
      <trkpt lat="44.97482" lon="0.74789">
        <ele>133.28</ele>
        <time>2017-08-11T13:48:07Z</time>
      </trkpt>
      <trkpt lat="44.97477" lon="0.74806">
        <ele>132.8</ele>
        <time>2017-08-11T13:48:12Z</time>
      </trkpt>
      <trkpt lat="44.97463" lon="0.74841">
        <ele>133.76</ele>
        <time>2017-08-11T13:48:26Z</time>
      </trkpt>
      <trkpt lat="44.9746" lon="0.74853">
        <ele>134.24</ele>
        <time>2017-08-11T13:48:37Z</time>
      </trkpt>
      <trkpt lat="44.97456" lon="0.74863">
        <ele>135.2</ele>
        <time>2017-08-11T13:48:48Z</time>
      </trkpt>
      <trkpt lat="44.97452" lon="0.74871">
        <ele>135.2</ele>
        <time>2017-08-11T13:48:57Z</time>
      </trkpt>
      <trkpt lat="44.97448" lon="0.74881">
        <ele>135.2</ele>
        <time>2017-08-11T13:49:08Z</time>
      </trkpt>
      <trkpt lat="44.97447" lon="0.74891">
        <ele>135.2</ele>
        <time>2017-08-11T13:49:19Z</time>
      </trkpt>
      <trkpt lat="44.97446" lon="0.74895">
        <ele>134.72</ele>
        <time>2017-08-11T13:49:27Z</time>
      </trkpt>
      <trkpt lat="44.97441" lon="0.74909">
        <ele>135.2</ele>
        <time>2017-08-11T13:49:38Z</time>
      </trkpt>
      <trkpt lat="44.97435" lon="0.74918">
        <ele>135.68</ele>
        <time>2017-08-11T13:49:47Z</time>
      </trkpt>
      <trkpt lat="44.9743" lon="0.74929">
        <ele>136.64</ele>
        <time>2017-08-11T13:49:56Z</time>
      </trkpt>
      <trkpt lat="44.97428" lon="0.74937">
        <ele>137.13</ele>
        <time>2017-08-11T13:50:00Z</time>
      </trkpt>
      <trkpt lat="44.97422" lon="0.74958">
        <ele>137.61</ele>
        <time>2017-08-11T13:50:12Z</time>
      </trkpt>
      <trkpt lat="44.97417" lon="0.74973">
        <ele>138.09</ele>
        <time>2017-08-11T13:50:21Z</time>
      </trkpt>
      <trkpt lat="44.97415" lon="0.74992">
        <ele>138.57</ele>
        <time>2017-08-11T13:50:32Z</time>
      </trkpt>
      <trkpt lat="44.97414" lon="0.75008">
        <ele>138.09</ele>
        <time>2017-08-11T13:50:45Z</time>
      </trkpt>
      <trkpt lat="44.97415" lon="0.75025">
        <ele>137.61</ele>
        <time>2017-08-11T13:50:57Z</time>
      </trkpt>
      <trkpt lat="44.97413" lon="0.75041">
        <ele>137.61</ele>
        <time>2017-08-11T13:51:08Z</time>
      </trkpt>
      <trkpt lat="44.97412" lon="0.75052">
        <ele>137.61</ele>
        <time>2017-08-11T13:51:19Z</time>
      </trkpt>
      <trkpt lat="44.9741" lon="0.75068">
        <ele>137.61</ele>
        <time>2017-08-11T13:51:27Z</time>
      </trkpt>
      <trkpt lat="44.97409" lon="0.7508">
        <ele>137.61</ele>
        <time>2017-08-11T13:51:33Z</time>
      </trkpt>
      <trkpt lat="44.97404" lon="0.75098">
        <ele>137.13</ele>
        <time>2017-08-11T13:51:45Z</time>
      </trkpt>
      <trkpt lat="44.97402" lon="0.75106">
        <ele>137.61</ele>
        <time>2017-08-11T13:51:51Z</time>
      </trkpt>
      <trkpt lat="44.97397" lon="0.75128">
        <ele>137.61</ele>
        <time>2017-08-11T13:52:05Z</time>
      </trkpt>
      <trkpt lat="44.97397" lon="0.75129">
        <ele>137.61</ele>
        <time>2017-08-11T13:52:06Z</time>
      </trkpt>
      <trkpt lat="44.97392" lon="0.75155">
        <ele>137.61</ele>
        <time>2017-08-11T13:52:21Z</time>
      </trkpt>
      <trkpt lat="44.9739" lon="0.75171">
        <ele>137.61</ele>
        <time>2017-08-11T13:52:31Z</time>
      </trkpt>
      <trkpt lat="44.97387" lon="0.75194">
        <ele>138.09</ele>
        <time>2017-08-11T13:52:45Z</time>
      </trkpt>
      <trkpt lat="44.97384" lon="0.75215">
        <ele>138.57</ele>
        <time>2017-08-11T13:52:59Z</time>
      </trkpt>
      <trkpt lat="44.97381" lon="0.75224">
        <ele>139.05</ele>
        <time>2017-08-11T13:53:05Z</time>
      </trkpt>
      <trkpt lat="44.97377" lon="0.75243">
        <ele>139.05</ele>
        <time>2017-08-11T13:53:17Z</time>
      </trkpt>
      <trkpt lat="44.97373" lon="0.75264">
        <ele>139.53</ele>
        <time>2017-08-11T13:53:31Z</time>
      </trkpt>
      <trkpt lat="44.97374" lon="0.75281">
        <ele>140.01</ele>
        <time>2017-08-11T13:53:44Z</time>
      </trkpt>
      <trkpt lat="44.97374" lon="0.75298">
        <ele>140.01</ele>
        <time>2017-08-11T13:53:56Z</time>
      </trkpt>
      <trkpt lat="44.97375" lon="0.75304">
        <ele>140.01</ele>
        <time>2017-08-11T13:54:00Z</time>
      </trkpt>
      <trkpt lat="44.97376" lon="0.75319">
        <ele>140.01</ele>
        <time>2017-08-11T13:54:13Z</time>
      </trkpt>
      <trkpt lat="44.97373" lon="0.75338">
        <ele>140.49</ele>
        <time>2017-08-11T13:54:26Z</time>
      </trkpt>
      <trkpt lat="44.9737" lon="0.75348">
        <ele>141.45</ele>
        <time>2017-08-11T13:54:38Z</time>
      </trkpt>
      <trkpt lat="44.97367" lon="0.75354">
        <ele>141.93</ele>
        <time>2017-08-11T13:54:44Z</time>
      </trkpt>
      <trkpt lat="44.97359" lon="0.7537">
        <ele>143.37</ele>
        <time>2017-08-11T13:54:58Z</time>
      </trkpt>
      <trkpt lat="44.97354" lon="0.75381">
        <ele>144.82</ele>
        <time>2017-08-11T13:55:09Z</time>
      </trkpt>
      <trkpt lat="44.97351" lon="0.75388">
        <ele>145.78</ele>
        <time>2017-08-11T13:55:20Z</time>
      </trkpt>
      <trkpt lat="44.97349" lon="0.75393">
        <ele>146.26</ele>
        <time>2017-08-11T13:55:38Z</time>
      </trkpt>
      <trkpt lat="44.97348" lon="0.75396">
        <ele>146.26</ele>
        <time>2017-08-11T13:55:57Z</time>
      </trkpt>
      <trkpt lat="44.97348" lon="0.75396">
        <ele>145.78</ele>
        <time>2017-08-11T13:56:26Z</time>
      </trkpt>
      <trkpt lat="44.97348" lon="0.75396">
        <ele>146.74</ele>
        <time>2017-08-11T13:56:59Z</time>
      </trkpt>
      <trkpt lat="44.97348" lon="0.75397">
        <ele>147.22</ele>
        <time>2017-08-11T13:57:16Z</time>
      </trkpt>
      <trkpt lat="44.97347" lon="0.75402">
        <ele>146.26</ele>
        <time>2017-08-11T13:57:32Z</time>
      </trkpt>
      <trkpt lat="44.97346" lon="0.75404">
        <ele>147.7</ele>
        <time>2017-08-11T13:57:41Z</time>
      </trkpt>
      <trkpt lat="44.97343" lon="0.75407">
        <ele>148.66</ele>
        <time>2017-08-11T13:57:51Z</time>
      </trkpt>
      <trkpt lat="44.97342" lon="0.75407">
        <ele>148.66</ele>
        <time>2017-08-11T13:57:52Z</time>
      </trkpt>
      <trkpt lat="44.9734" lon="0.75407">
        <ele>149.14</ele>
        <time>2017-08-11T13:57:54Z</time>
      </trkpt>
      <trkpt lat="44.97335" lon="0.75411">
        <ele>150.58</ele>
        <time>2017-08-11T13:58:05Z</time>
      </trkpt>
      <trkpt lat="44.9733" lon="0.75419">
        <ele>151.54</ele>
        <time>2017-08-11T13:58:16Z</time>
      </trkpt>
      <trkpt lat="44.97321" lon="0.75429">
        <ele>152.51</ele>
        <time>2017-08-11T13:58:25Z</time>
      </trkpt>
      <trkpt lat="44.97315" lon="0.75433">
        <ele>153.47</ele>
        <time>2017-08-11T13:58:37Z</time>
      </trkpt>
      <trkpt lat="44.97313" lon="0.75441">
        <ele>152.99</ele>
        <time>2017-08-11T13:59:02Z</time>
      </trkpt>
      <trkpt lat="44.97313" lon="0.75445">
        <ele>152.99</ele>
        <time>2017-08-11T13:59:27Z</time>
      </trkpt>
      <trkpt lat="44.9731" lon="0.75455">
        <ele>153.47</ele>
        <time>2017-08-11T13:59:56Z</time>
      </trkpt>
      <trkpt lat="44.9731" lon="0.75455">
        <ele>152.99</ele>
        <time>2017-08-11T14:00:14Z</time>
      </trkpt>
      <trkpt lat="44.97307" lon="0.75454">
        <ele>153.95</ele>
        <time>2017-08-11T14:00:28Z</time>
      </trkpt>
      <trkpt lat="44.97298" lon="0.75449">
        <ele>155.39</ele>
        <time>2017-08-11T14:00:41Z</time>
      </trkpt>
      <trkpt lat="44.97284" lon="0.75441">
        <ele>156.83</ele>
        <time>2017-08-11T14:00:54Z</time>
      </trkpt>
      <trkpt lat="44.97284" lon="0.75441">
        <ele>156.83</ele>
        <time>2017-08-11T14:00:55Z</time>
      </trkpt>
      <trkpt lat="44.97272" lon="0.75437">
        <ele>157.79</ele>
        <time>2017-08-11T14:01:05Z</time>
      </trkpt>
      <trkpt lat="44.9727" lon="0.75435">
        <ele>158.27</ele>
        <time>2017-08-11T14:01:07Z</time>
      </trkpt>
      <trkpt lat="44.97257" lon="0.75426">
        <ele>158.75</ele>
        <time>2017-08-11T14:01:19Z</time>
      </trkpt>
      <trkpt lat="44.97251" lon="0.75423">
        <ele>159.72</ele>
        <time>2017-08-11T14:01:25Z</time>
      </trkpt>
      <trkpt lat="44.9724" lon="0.75416">
        <ele>160.68</ele>
        <time>2017-08-11T14:01:39Z</time>
      </trkpt>
      <trkpt lat="44.9723" lon="0.7541">
        <ele>162.12</ele>
        <time>2017-08-11T14:01:52Z</time>
      </trkpt>
      <trkpt lat="44.97222" lon="0.75408">
        <ele>163.08</ele>
        <time>2017-08-11T14:02:07Z</time>
      </trkpt>
      <trkpt lat="44.97211" lon="0.75404">
        <ele>164.04</ele>
        <time>2017-08-11T14:02:20Z</time>
      </trkpt>
      <trkpt lat="44.97203" lon="0.75401">
        <ele>165</ele>
        <time>2017-08-11T14:02:37Z</time>
      </trkpt>
      <trkpt lat="44.97197" lon="0.75399">
        <ele>165.96</ele>
        <time>2017-08-11T14:02:52Z</time>
      </trkpt>
      <trkpt lat="44.9719" lon="0.75395">
        <ele>166.93</ele>
        <time>2017-08-11T14:03:04Z</time>
      </trkpt>
      <trkpt lat="44.97175" lon="0.75388">
        <ele>168.37</ele>
        <time>2017-08-11T14:03:18Z</time>
      </trkpt>
      <trkpt lat="44.97158" lon="0.75379">
        <ele>169.81</ele>
        <time>2017-08-11T14:03:34Z</time>
      </trkpt>
      <trkpt lat="44.97151" lon="0.75374">
        <ele>170.77</ele>
        <time>2017-08-11T14:03:46Z</time>
      </trkpt>
      <trkpt lat="44.97139" lon="0.75367">
        <ele>171.73</ele>
        <time>2017-08-11T14:03:58Z</time>
      </trkpt>
      <trkpt lat="44.97134" lon="0.75365">
        <ele>172.21</ele>
        <time>2017-08-11T14:04:05Z</time>
      </trkpt>
      <trkpt lat="44.97114" lon="0.75358">
        <ele>172.69</ele>
        <time>2017-08-11T14:04:19Z</time>
      </trkpt>
      <trkpt lat="44.97102" lon="0.75352">
        <ele>173.17</ele>
        <time>2017-08-11T14:04:29Z</time>
      </trkpt>
      <trkpt lat="44.97087" lon="0.75345">
        <ele>173.66</ele>
        <time>2017-08-11T14:04:42Z</time>
      </trkpt>
      <trkpt lat="44.97078" lon="0.75339">
        <ele>174.62</ele>
        <time>2017-08-11T14:04:56Z</time>
      </trkpt>
      <trkpt lat="44.97073" lon="0.75337">
        <ele>175.1</ele>
        <time>2017-08-11T14:05:07Z</time>
      </trkpt>
      <trkpt lat="44.97059" lon="0.75331">
        <ele>175.58</ele>
        <time>2017-08-11T14:05:18Z</time>
      </trkpt>
      <trkpt lat="44.97053" lon="0.75329">
        <ele>175.58</ele>
        <time>2017-08-11T14:05:21Z</time>
      </trkpt>
      <trkpt lat="44.97031" lon="0.75323">
        <ele>176.06</ele>
        <time>2017-08-11T14:05:36Z</time>
      </trkpt>
      <trkpt lat="44.97025" lon="0.75321">
        <ele>176.06</ele>
        <time>2017-08-11T14:05:40Z</time>
      </trkpt>
      <trkpt lat="44.9701" lon="0.75319">
        <ele>176.54</ele>
        <time>2017-08-11T14:05:53Z</time>
      </trkpt>
      <trkpt lat="44.97" lon="0.75321">
        <ele>176.54</ele>
        <time>2017-08-11T14:06:05Z</time>
      </trkpt>
      <trkpt lat="44.9699" lon="0.75322">
        <ele>177.02</ele>
        <time>2017-08-11T14:06:19Z</time>
      </trkpt>
      <trkpt lat="44.96977" lon="0.75325">
        <ele>177.5</ele>
        <time>2017-08-11T14:06:32Z</time>
      </trkpt>
      <trkpt lat="44.96967" lon="0.75331">
        <ele>178.46</ele>
        <time>2017-08-11T14:06:42Z</time>
      </trkpt>
      <trkpt lat="44.96955" lon="0.75337">
        <ele>178.94</ele>
        <time>2017-08-11T14:06:54Z</time>
      </trkpt>
      <trkpt lat="44.96952" lon="0.75339">
        <ele>178.94</ele>
        <time>2017-08-11T14:06:57Z</time>
      </trkpt>
      <trkpt lat="44.96941" lon="0.75349">
        <ele>179.42</ele>
        <time>2017-08-11T14:07:08Z</time>
      </trkpt>
      <trkpt lat="44.96938" lon="0.75353">
        <ele>179.9</ele>
        <time>2017-08-11T14:07:14Z</time>
      </trkpt>
      <trkpt lat="44.96924" lon="0.75364">
        <ele>180.38</ele>
        <time>2017-08-11T14:07:26Z</time>
      </trkpt>
      <trkpt lat="44.96915" lon="0.75373">
        <ele>181.35</ele>
        <time>2017-08-11T14:07:37Z</time>
      </trkpt>
      <trkpt lat="44.96911" lon="0.75378">
        <ele>182.79</ele>
        <time>2017-08-11T14:07:52Z</time>
      </trkpt>
      <trkpt lat="44.96908" lon="0.75382">
        <ele>181.83</ele>
        <time>2017-08-11T14:08:10Z</time>
      </trkpt>
      <trkpt lat="44.96906" lon="0.7539">
        <ele>182.31</ele>
        <time>2017-08-11T14:08:43Z</time>
      </trkpt>
      <trkpt lat="44.96905" lon="0.7539">
        <ele>182.31</ele>
        <time>2017-08-11T14:09:06Z</time>
      </trkpt>
      <trkpt lat="44.96904" lon="0.75391">
        <ele>182.79</ele>
        <time>2017-08-11T14:09:21Z</time>
      </trkpt>
      <trkpt lat="44.96904" lon="0.75391">
        <ele>179.42</ele>
        <time>2017-08-11T14:09:23Z</time>
      </trkpt>
      <trkpt lat="44.96904" lon="0.75391">
        <ele>182.31</ele>
        <time>2017-08-11T14:09:25Z</time>
      </trkpt>
      <trkpt lat="44.96903" lon="0.75392">
        <ele>183.27</ele>
        <time>2017-08-11T14:09:39Z</time>
      </trkpt>
      <trkpt lat="44.96896" lon="0.75405">
        <ele>183.75</ele>
        <time>2017-08-11T14:09:54Z</time>
      </trkpt>
      <trkpt lat="44.96889" lon="0.75413">
        <ele>184.71</ele>
        <time>2017-08-11T14:10:02Z</time>
      </trkpt>
      <trkpt lat="44.96874" lon="0.7544">
        <ele>185.67</ele>
        <time>2017-08-11T14:10:19Z</time>
      </trkpt>
      <trkpt lat="44.96861" lon="0.75459">
        <ele>186.63</ele>
        <time>2017-08-11T14:10:34Z</time>
      </trkpt>
      <trkpt lat="44.96852" lon="0.75475">
        <ele>187.59</ele>
        <time>2017-08-11T14:10:47Z</time>
      </trkpt>
      <trkpt lat="44.96852" lon="0.75477">
        <ele>188.08</ele>
        <time>2017-08-11T14:10:49Z</time>
      </trkpt>
      <trkpt lat="44.96849" lon="0.75484">
        <ele>188.56</ele>
        <time>2017-08-11T14:10:55Z</time>
      </trkpt>
      <trkpt lat="44.96844" lon="0.75494">
        <ele>189.04</ele>
        <time>2017-08-11T14:11:03Z</time>
      </trkpt>
      <trkpt lat="44.96838" lon="0.75509">
        <ele>190</ele>
        <time>2017-08-11T14:11:16Z</time>
      </trkpt>
      <trkpt lat="44.96833" lon="0.75515">
        <ele>190.96</ele>
        <time>2017-08-11T14:11:23Z</time>
      </trkpt>
      <trkpt lat="44.96824" lon="0.75524">
        <ele>191.92</ele>
        <time>2017-08-11T14:11:37Z</time>
      </trkpt>
      <trkpt lat="44.96815" lon="0.75533">
        <ele>192.88</ele>
        <time>2017-08-11T14:11:49Z</time>
      </trkpt>
      <trkpt lat="44.96806" lon="0.75545">
        <ele>193.36</ele>
        <time>2017-08-11T14:12:01Z</time>
      </trkpt>
      <trkpt lat="44.96805" lon="0.75546">
        <ele>193.84</ele>
        <time>2017-08-11T14:12:02Z</time>
      </trkpt>
      <trkpt lat="44.96796" lon="0.75564">
        <ele>194.32</ele>
        <time>2017-08-11T14:12:15Z</time>
      </trkpt>
      <trkpt lat="44.96786" lon="0.75577">
        <ele>195.28</ele>
        <time>2017-08-11T14:12:27Z</time>
      </trkpt>
      <trkpt lat="44.96784" lon="0.75578">
        <ele>195.28</ele>
        <time>2017-08-11T14:12:30Z</time>
      </trkpt>
      <trkpt lat="44.96782" lon="0.75583">
        <ele>195.28</ele>
        <time>2017-08-11T14:12:33Z</time>
      </trkpt>
      <trkpt lat="44.96776" lon="0.75601">
        <ele>195.77</ele>
        <time>2017-08-11T14:12:46Z</time>
      </trkpt>
      <trkpt lat="44.96773" lon="0.75608">
        <ele>195.77</ele>
        <time>2017-08-11T14:12:50Z</time>
      </trkpt>
      <trkpt lat="44.96771" lon="0.75614">
        <ele>195.77</ele>
        <time>2017-08-11T14:12:54Z</time>
      </trkpt>
      <trkpt lat="44.96768" lon="0.75628">
        <ele>196.25</ele>
        <time>2017-08-11T14:13:05Z</time>
      </trkpt>
      <trkpt lat="44.96761" lon="0.75646">
        <ele>197.69</ele>
        <time>2017-08-11T14:13:18Z</time>
      </trkpt>
      <trkpt lat="44.96755" lon="0.75658">
        <ele>197.69</ele>
        <time>2017-08-11T14:13:32Z</time>
      </trkpt>
      <trkpt lat="44.96755" lon="0.75659">
        <ele>197.69</ele>
        <time>2017-08-11T14:13:34Z</time>
      </trkpt>
      <trkpt lat="44.96746" lon="0.75674">
        <ele>198.17</ele>
        <time>2017-08-11T14:13:49Z</time>
      </trkpt>
      <trkpt lat="44.96742" lon="0.75684">
        <ele>198.65</ele>
        <time>2017-08-11T14:14:02Z</time>
      </trkpt>
      <trkpt lat="44.96735" lon="0.75701">
        <ele>199.61</ele>
        <time>2017-08-11T14:14:14Z</time>
      </trkpt>
      <trkpt lat="44.96732" lon="0.7572">
        <ele>200.09</ele>
        <time>2017-08-11T14:14:27Z</time>
      </trkpt>
      <trkpt lat="44.96728" lon="0.7573">
        <ele>200.57</ele>
        <time>2017-08-11T14:14:42Z</time>
      </trkpt>
      <trkpt lat="44.9673" lon="0.75731">
        <ele>200.57</ele>
        <time>2017-08-11T14:14:55Z</time>
      </trkpt>
      <trkpt lat="44.96731" lon="0.75733">
        <ele>201.05</ele>
        <time>2017-08-11T14:15:17Z</time>
      </trkpt>
      <trkpt lat="44.96731" lon="0.75734">
        <ele>201.05</ele>
        <time>2017-08-11T14:15:42Z</time>
      </trkpt>
      <trkpt lat="44.9673" lon="0.75734">
        <ele>201.53</ele>
        <time>2017-08-11T14:15:52Z</time>
      </trkpt>
      <trkpt lat="44.96729" lon="0.75735">
        <ele>201.05</ele>
        <time>2017-08-11T14:16:09Z</time>
      </trkpt>
      <trkpt lat="44.96729" lon="0.75735">
        <ele>201.53</ele>
        <time>2017-08-11T14:16:29Z</time>
      </trkpt>
      <trkpt lat="44.96729" lon="0.75735">
        <ele>201.53</ele>
        <time>2017-08-11T14:16:56Z</time>
      </trkpt>
      <trkpt lat="44.96729" lon="0.75735">
        <ele>201.53</ele>
        <time>2017-08-11T14:17:20Z</time>
      </trkpt>
      <trkpt lat="44.96729" lon="0.75736">
        <ele>202.01</ele>
        <time>2017-08-11T14:17:42Z</time>
      </trkpt>
      <trkpt lat="44.96729" lon="0.75737">
        <ele>202.01</ele>
        <time>2017-08-11T14:18:05Z</time>
      </trkpt>
      <trkpt lat="44.96729" lon="0.75737">
        <ele>202.01</ele>
        <time>2017-08-11T14:18:27Z</time>
      </trkpt>
      <trkpt lat="44.96728" lon="0.7574">
        <ele>202.01</ele>
        <time>2017-08-11T14:18:40Z</time>
      </trkpt>
      <trkpt lat="44.96729" lon="0.75742">
        <ele>202.49</ele>
        <time>2017-08-11T14:18:53Z</time>
      </trkpt>
      <trkpt lat="44.96734" lon="0.75754">
        <ele>203.46</ele>
        <time>2017-08-11T14:19:07Z</time>
      </trkpt>
      <trkpt lat="44.96742" lon="0.75769">
        <ele>203.94</ele>
        <time>2017-08-11T14:19:21Z</time>
      </trkpt>
      <trkpt lat="44.96749" lon="0.75784">
        <ele>203.94</ele>
        <time>2017-08-11T14:19:33Z</time>
      </trkpt>
      <trkpt lat="44.96755" lon="0.75792">
        <ele>203.94</ele>
        <time>2017-08-11T14:19:49Z</time>
      </trkpt>
      <trkpt lat="44.96756" lon="0.75803">
        <ele>203.94</ele>
        <time>2017-08-11T14:20:15Z</time>
      </trkpt>
      <trkpt lat="44.96758" lon="0.75814">
        <ele>203.94</ele>
        <time>2017-08-11T14:20:26Z</time>
      </trkpt>
      <trkpt lat="44.9676" lon="0.75822">
        <ele>202.98</ele>
        <time>2017-08-11T14:20:38Z</time>
      </trkpt>
      <trkpt lat="44.96763" lon="0.7583">
        <ele>202.98</ele>
        <time>2017-08-11T14:20:46Z</time>
      </trkpt>
      <trkpt lat="44.96766" lon="0.75838">
        <ele>202.98</ele>
        <time>2017-08-11T14:21:04Z</time>
      </trkpt>
      <trkpt lat="44.96768" lon="0.75847">
        <ele>202.49</ele>
        <time>2017-08-11T14:21:23Z</time>
      </trkpt>
      <trkpt lat="44.96772" lon="0.75852">
        <ele>202.01</ele>
        <time>2017-08-11T14:21:37Z</time>
      </trkpt>
      <trkpt lat="44.96778" lon="0.7586">
        <ele>201.05</ele>
        <time>2017-08-11T14:21:49Z</time>
      </trkpt>
      <trkpt lat="44.96787" lon="0.75872">
        <ele>199.61</ele>
        <time>2017-08-11T14:22:02Z</time>
      </trkpt>
      <trkpt lat="44.96788" lon="0.75874">
        <ele>199.61</ele>
        <time>2017-08-11T14:22:03Z</time>
      </trkpt>
      <trkpt lat="44.96797" lon="0.75893">
        <ele>198.17</ele>
        <time>2017-08-11T14:22:18Z</time>
      </trkpt>
      <trkpt lat="44.96801" lon="0.75909">
        <ele>196.73</ele>
        <time>2017-08-11T14:22:32Z</time>
      </trkpt>
      <trkpt lat="44.96804" lon="0.75922">
        <ele>195.77</ele>
        <time>2017-08-11T14:22:47Z</time>
      </trkpt>
      <trkpt lat="44.96809" lon="0.75937">
        <ele>194.8</ele>
        <time>2017-08-11T14:22:58Z</time>
      </trkpt>
      <trkpt lat="44.96814" lon="0.75951">
        <ele>194.32</ele>
        <time>2017-08-11T14:23:10Z</time>
      </trkpt>
      <trkpt lat="44.96814" lon="0.75963">
        <ele>193.84</ele>
        <time>2017-08-11T14:23:30Z</time>
      </trkpt>
      <trkpt lat="44.96819" lon="0.7598">
        <ele>192.88</ele>
        <time>2017-08-11T14:23:51Z</time>
      </trkpt>
      <trkpt lat="44.96824" lon="0.75997">
        <ele>192.4</ele>
        <time>2017-08-11T14:24:01Z</time>
      </trkpt>
      <trkpt lat="44.96829" lon="0.76016">
        <ele>191.92</ele>
        <time>2017-08-11T14:24:13Z</time>
      </trkpt>
      <trkpt lat="44.96833" lon="0.76037">
        <ele>191.44</ele>
        <time>2017-08-11T14:24:26Z</time>
      </trkpt>
      <trkpt lat="44.96838" lon="0.76055">
        <ele>190.48</ele>
        <time>2017-08-11T14:24:35Z</time>
      </trkpt>
      <trkpt lat="44.9684" lon="0.76062">
        <ele>190.48</ele>
        <time>2017-08-11T14:24:38Z</time>
      </trkpt>
      <trkpt lat="44.96849" lon="0.76091">
        <ele>190</ele>
        <time>2017-08-11T14:24:52Z</time>
      </trkpt>
      <trkpt lat="44.96854" lon="0.76119">
        <ele>189.52</ele>
        <time>2017-08-11T14:25:05Z</time>
      </trkpt>
      <trkpt lat="44.96855" lon="0.76121">
        <ele>189.52</ele>
        <time>2017-08-11T14:25:06Z</time>
      </trkpt>
      <trkpt lat="44.96857" lon="0.76133">
        <ele>189.04</ele>
        <time>2017-08-11T14:25:11Z</time>
      </trkpt>
      <trkpt lat="44.9686" lon="0.76143">
        <ele>189.04</ele>
        <time>2017-08-11T14:25:15Z</time>
      </trkpt>
      <trkpt lat="44.96864" lon="0.76157">
        <ele>188.56</ele>
        <time>2017-08-11T14:25:24Z</time>
      </trkpt>
      <trkpt lat="44.96866" lon="0.76163">
        <ele>188.08</ele>
        <time>2017-08-11T14:25:28Z</time>
      </trkpt>
      <trkpt lat="44.96868" lon="0.7617">
        <ele>188.08</ele>
        <time>2017-08-11T14:25:34Z</time>
      </trkpt>
      <trkpt lat="44.96869" lon="0.76175">
        <ele>188.08</ele>
        <time>2017-08-11T14:25:37Z</time>
      </trkpt>
      <trkpt lat="44.96874" lon="0.76186">
        <ele>187.11</ele>
        <time>2017-08-11T14:25:45Z</time>
      </trkpt>
      <trkpt lat="44.9688" lon="0.76205">
        <ele>186.63</ele>
        <time>2017-08-11T14:25:58Z</time>
      </trkpt>
      <trkpt lat="44.96881" lon="0.76211">
        <ele>186.63</ele>
        <time>2017-08-11T14:26:01Z</time>
      </trkpt>
      <trkpt lat="44.96884" lon="0.7622">
        <ele>186.15</ele>
        <time>2017-08-11T14:26:06Z</time>
      </trkpt>
      <trkpt lat="44.9689" lon="0.7624">
        <ele>186.15</ele>
        <time>2017-08-11T14:26:18Z</time>
      </trkpt>
      <trkpt lat="44.96896" lon="0.76264">
        <ele>185.19</ele>
        <time>2017-08-11T14:26:32Z</time>
      </trkpt>
      <trkpt lat="44.96898" lon="0.76272">
        <ele>184.71</ele>
        <time>2017-08-11T14:26:38Z</time>
      </trkpt>
      <trkpt lat="44.96906" lon="0.76295">
        <ele>184.23</ele>
        <time>2017-08-11T14:26:54Z</time>
      </trkpt>
      <trkpt lat="44.96908" lon="0.76307">
        <ele>183.75</ele>
        <time>2017-08-11T14:27:00Z</time>
      </trkpt>
      <trkpt lat="44.96914" lon="0.76326">
        <ele>182.79</ele>
        <time>2017-08-11T14:27:13Z</time>
      </trkpt>
      <trkpt lat="44.96919" lon="0.76345">
        <ele>182.31</ele>
        <time>2017-08-11T14:27:25Z</time>
      </trkpt>
      <trkpt lat="44.96924" lon="0.76365">
        <ele>181.35</ele>
        <time>2017-08-11T14:27:38Z</time>
      </trkpt>
      <trkpt lat="44.9693" lon="0.7638">
        <ele>180.87</ele>
        <time>2017-08-11T14:27:50Z</time>
      </trkpt>
      <trkpt lat="44.96935" lon="0.76403">
        <ele>179.9</ele>
        <time>2017-08-11T14:28:04Z</time>
      </trkpt>
      <trkpt lat="44.96939" lon="0.7641">
        <ele>178.94</ele>
        <time>2017-08-11T14:28:16Z</time>
      </trkpt>
      <trkpt lat="44.96939" lon="0.76414">
        <ele>178.94</ele>
        <time>2017-08-11T14:28:18Z</time>
      </trkpt>
      <trkpt lat="44.96945" lon="0.76426">
        <ele>177.98</ele>
        <time>2017-08-11T14:28:30Z</time>
      </trkpt>
      <trkpt lat="44.96945" lon="0.76428">
        <ele>177.98</ele>
        <time>2017-08-11T14:28:31Z</time>
      </trkpt>
      <trkpt lat="44.9695" lon="0.76441">
        <ele>177.02</ele>
        <time>2017-08-11T14:28:43Z</time>
      </trkpt>
      <trkpt lat="44.96958" lon="0.76452">
        <ele>176.06</ele>
        <time>2017-08-11T14:28:55Z</time>
      </trkpt>
      <trkpt lat="44.96969" lon="0.76469">
        <ele>175.1</ele>
        <time>2017-08-11T14:29:09Z</time>
      </trkpt>
      <trkpt lat="44.96979" lon="0.76495">
        <ele>173.17</ele>
        <time>2017-08-11T14:29:26Z</time>
      </trkpt>
      <trkpt lat="44.96988" lon="0.76514">
        <ele>171.73</ele>
        <time>2017-08-11T14:29:40Z</time>
      </trkpt>
      <trkpt lat="44.96997" lon="0.76527">
        <ele>170.29</ele>
        <time>2017-08-11T14:29:53Z</time>
      </trkpt>
      <trkpt lat="44.97007" lon="0.76544">
        <ele>168.37</ele>
        <time>2017-08-11T14:30:09Z</time>
      </trkpt>
      <trkpt lat="44.97019" lon="0.76558">
        <ele>166.45</ele>
        <time>2017-08-11T14:30:25Z</time>
      </trkpt>
      <trkpt lat="44.9703" lon="0.76568">
        <ele>164.04</ele>
        <time>2017-08-11T14:30:40Z</time>
      </trkpt>
      <trkpt lat="44.97034" lon="0.76577">
        <ele>162.6</ele>
        <time>2017-08-11T14:30:55Z</time>
      </trkpt>
      <trkpt lat="44.9704" lon="0.76589">
        <ele>161.16</ele>
        <time>2017-08-11T14:31:08Z</time>
      </trkpt>
      <trkpt lat="44.97044" lon="0.76593">
        <ele>160.68</ele>
        <time>2017-08-11T14:31:12Z</time>
      </trkpt>
      <trkpt lat="44.97059" lon="0.76615">
        <ele>159.24</ele>
        <time>2017-08-11T14:31:28Z</time>
      </trkpt>
      <trkpt lat="44.97061" lon="0.76619">
        <ele>158.27</ele>
        <time>2017-08-11T14:31:31Z</time>
      </trkpt>
      <trkpt lat="44.97069" lon="0.76632">
        <ele>157.31</ele>
        <time>2017-08-11T14:31:43Z</time>
      </trkpt>
      <trkpt lat="44.9708" lon="0.76648">
        <ele>155.87</ele>
        <time>2017-08-11T14:31:56Z</time>
      </trkpt>
      <trkpt lat="44.97083" lon="0.76653">
        <ele>155.87</ele>
        <time>2017-08-11T14:32:00Z</time>
      </trkpt>
      <trkpt lat="44.97092" lon="0.76674">
        <ele>154.91</ele>
        <time>2017-08-11T14:32:13Z</time>
      </trkpt>
      <trkpt lat="44.97092" lon="0.76675">
        <ele>154.43</ele>
        <time>2017-08-11T14:32:19Z</time>
      </trkpt>
      <trkpt lat="44.97096" lon="0.76684">
        <ele>153.95</ele>
        <time>2017-08-11T14:32:25Z</time>
      </trkpt>
      <trkpt lat="44.97099" lon="0.76692">
        <ele>153.95</ele>
        <time>2017-08-11T14:32:29Z</time>
      </trkpt>
      <trkpt lat="44.97105" lon="0.76707">
        <ele>153.47</ele>
        <time>2017-08-11T14:32:44Z</time>
      </trkpt>
      <trkpt lat="44.97111" lon="0.76719">
        <ele>152.51</ele>
        <time>2017-08-11T14:32:58Z</time>
      </trkpt>
      <trkpt lat="44.97121" lon="0.76733">
        <ele>152.03</ele>
        <time>2017-08-11T14:33:13Z</time>
      </trkpt>
      <trkpt lat="44.97125" lon="0.76743">
        <ele>151.06</ele>
        <time>2017-08-11T14:33:26Z</time>
      </trkpt>
      <trkpt lat="44.97138" lon="0.76757">
        <ele>150.58</ele>
        <time>2017-08-11T14:33:43Z</time>
      </trkpt>
      <trkpt lat="44.97147" lon="0.76766">
        <ele>150.58</ele>
        <time>2017-08-11T14:33:56Z</time>
      </trkpt>
      <trkpt lat="44.97158" lon="0.76776">
        <ele>150.1</ele>
        <time>2017-08-11T14:34:13Z</time>
      </trkpt>
      <trkpt lat="44.97173" lon="0.76788">
        <ele>149.62</ele>
        <time>2017-08-11T14:34:29Z</time>
      </trkpt>
      <trkpt lat="44.97181" lon="0.76802">
        <ele>148.66</ele>
        <time>2017-08-11T14:34:42Z</time>
      </trkpt>
      <trkpt lat="44.97188" lon="0.76816">
        <ele>148.66</ele>
        <time>2017-08-11T14:34:55Z</time>
      </trkpt>
      <trkpt lat="44.97191" lon="0.7682">
        <ele>148.66</ele>
        <time>2017-08-11T14:35:17Z</time>
      </trkpt>
      <trkpt lat="44.97191" lon="0.76819">
        <ele>148.18</ele>
        <time>2017-08-11T14:35:36Z</time>
      </trkpt>
      <trkpt lat="44.97192" lon="0.76818">
        <ele>148.66</ele>
        <time>2017-08-11T14:36:03Z</time>
      </trkpt>
      <trkpt lat="44.97192" lon="0.76817">
        <ele>148.18</ele>
        <time>2017-08-11T14:36:29Z</time>
      </trkpt>
      <trkpt lat="44.97192" lon="0.76816">
        <ele>149.14</ele>
        <time>2017-08-11T14:36:57Z</time>
      </trkpt>
      <trkpt lat="44.97192" lon="0.76816">
        <ele>149.14</ele>
        <time>2017-08-11T14:37:13Z</time>
      </trkpt>
      <trkpt lat="44.97192" lon="0.76816">
        <ele>148.66</ele>
        <time>2017-08-11T14:37:28Z</time>
      </trkpt>
      <trkpt lat="44.97191" lon="0.76819">
        <ele>149.14</ele>
        <time>2017-08-11T14:37:59Z</time>
      </trkpt>
      <trkpt lat="44.9719" lon="0.7682">
        <ele>149.14</ele>
        <time>2017-08-11T14:38:31Z</time>
      </trkpt>
      <trkpt lat="44.97188" lon="0.76819">
        <ele>149.62</ele>
        <time>2017-08-11T14:38:50Z</time>
      </trkpt>
      <trkpt lat="44.97186" lon="0.76815">
        <ele>149.62</ele>
        <time>2017-08-11T14:39:08Z</time>
      </trkpt>
      <trkpt lat="44.97186" lon="0.76806">
        <ele>152.03</ele>
        <time>2017-08-11T14:39:21Z</time>
      </trkpt>
      <trkpt lat="44.97186" lon="0.768">
        <ele>151.06</ele>
        <time>2017-08-11T14:39:33Z</time>
      </trkpt>
      <trkpt lat="44.97182" lon="0.76798">
        <ele>151.06</ele>
        <time>2017-08-11T14:39:46Z</time>
      </trkpt>
      <trkpt lat="44.97171" lon="0.76787">
        <ele>151.06</ele>
        <time>2017-08-11T14:39:58Z</time>
      </trkpt>
      <trkpt lat="44.97157" lon="0.76774">
        <ele>150.1</ele>
        <time>2017-08-11T14:40:11Z</time>
      </trkpt>
      <trkpt lat="44.97154" lon="0.76771">
        <ele>151.06</ele>
        <time>2017-08-11T14:40:14Z</time>
      </trkpt>
      <trkpt lat="44.97146" lon="0.7677">
        <ele>151.06</ele>
        <time>2017-08-11T14:40:26Z</time>
      </trkpt>
      <trkpt lat="44.97142" lon="0.76772">
        <ele>151.06</ele>
        <time>2017-08-11T14:40:51Z</time>
      </trkpt>
      <trkpt lat="44.9714" lon="0.76768">
        <ele>151.54</ele>
        <time>2017-08-11T14:41:03Z</time>
      </trkpt>
      <trkpt lat="44.97139" lon="0.76765">
        <ele>151.54</ele>
        <time>2017-08-11T14:41:23Z</time>
      </trkpt>
      <trkpt lat="44.97139" lon="0.76764">
        <ele>151.54</ele>
        <time>2017-08-11T14:41:43Z</time>
      </trkpt>
      <trkpt lat="44.97137" lon="0.7676">
        <ele>151.54</ele>
        <time>2017-08-11T14:42:08Z</time>
      </trkpt>
      <trkpt lat="44.9713" lon="0.76751">
        <ele>152.03</ele>
        <time>2017-08-11T14:42:20Z</time>
      </trkpt>
      <trkpt lat="44.97125" lon="0.76743">
        <ele>152.51</ele>
        <time>2017-08-11T14:42:34Z</time>
      </trkpt>
      <trkpt lat="44.97125" lon="0.76741">
        <ele>152.99</ele>
        <time>2017-08-11T14:42:49Z</time>
      </trkpt>
      <trkpt lat="44.97125" lon="0.76738">
        <ele>152.99</ele>
        <time>2017-08-11T14:43:03Z</time>
      </trkpt>
      <trkpt lat="44.97124" lon="0.76737">
        <ele>153.47</ele>
        <time>2017-08-11T14:43:18Z</time>
      </trkpt>
      <trkpt lat="44.97122" lon="0.76734">
        <ele>153.47</ele>
        <time>2017-08-11T14:43:23Z</time>
      </trkpt>
      <trkpt lat="44.97117" lon="0.76727">
        <ele>153.95</ele>
        <time>2017-08-11T14:43:29Z</time>
      </trkpt>
      <trkpt lat="44.97108" lon="0.76711">
        <ele>154.43</ele>
        <time>2017-08-11T14:43:42Z</time>
      </trkpt>
      <trkpt lat="44.97106" lon="0.76708">
        <ele>154.91</ele>
        <time>2017-08-11T14:43:46Z</time>
      </trkpt>
      <trkpt lat="44.97102" lon="0.76701">
        <ele>154.91</ele>
        <time>2017-08-11T14:43:52Z</time>
      </trkpt>
      <trkpt lat="44.97098" lon="0.76693">
        <ele>155.39</ele>
        <time>2017-08-11T14:44:08Z</time>
      </trkpt>
      <trkpt lat="44.97096" lon="0.76692">
        <ele>155.39</ele>
        <time>2017-08-11T14:44:31Z</time>
      </trkpt>
      <trkpt lat="44.97095" lon="0.76693">
        <ele>155.39</ele>
        <time>2017-08-11T14:45:00Z</time>
      </trkpt>
      <trkpt lat="44.97095" lon="0.76693">
        <ele>155.39</ele>
        <time>2017-08-11T14:45:30Z</time>
      </trkpt>
      <trkpt lat="44.97097" lon="0.767">
        <ele>154.91</ele>
        <time>2017-08-11T14:45:54Z</time>
      </trkpt>
      <trkpt lat="44.97095" lon="0.76704">
        <ele>155.39</ele>
        <time>2017-08-11T14:45:57Z</time>
      </trkpt>
      <trkpt lat="44.97089" lon="0.76711">
        <ele>154.91</ele>
        <time>2017-08-11T14:46:05Z</time>
      </trkpt>
      <trkpt lat="44.97086" lon="0.76713">
        <ele>154.91</ele>
        <time>2017-08-11T14:46:08Z</time>
      </trkpt>
      <trkpt lat="44.97078" lon="0.76715">
        <ele>154.91</ele>
        <time>2017-08-11T14:46:15Z</time>
      </trkpt>
      <trkpt lat="44.97073" lon="0.76715">
        <ele>154.91</ele>
        <time>2017-08-11T14:46:19Z</time>
      </trkpt>
      <trkpt lat="44.97069" lon="0.76715">
        <ele>154.91</ele>
        <time>2017-08-11T14:46:23Z</time>
      </trkpt>
      <trkpt lat="44.97055" lon="0.76712">
        <ele>154.43</ele>
        <time>2017-08-11T14:46:35Z</time>
      </trkpt>
      <trkpt lat="44.97047" lon="0.76709">
        <ele>153.95</ele>
        <time>2017-08-11T14:46:43Z</time>
      </trkpt>
      <trkpt lat="44.97031" lon="0.76705">
        <ele>154.43</ele>
        <time>2017-08-11T14:46:58Z</time>
      </trkpt>
      <trkpt lat="44.97017" lon="0.76704">
        <ele>154.91</ele>
        <time>2017-08-11T14:47:11Z</time>
      </trkpt>
      <trkpt lat="44.97009" lon="0.76703">
        <ele>154.91</ele>
        <time>2017-08-11T14:47:18Z</time>
      </trkpt>
      <trkpt lat="44.97002" lon="0.76702">
        <ele>154.91</ele>
        <time>2017-08-11T14:47:27Z</time>
      </trkpt>
      <trkpt lat="44.96994" lon="0.76703">
        <ele>154.91</ele>
        <time>2017-08-11T14:47:34Z</time>
      </trkpt>
      <trkpt lat="44.96985" lon="0.76703">
        <ele>155.39</ele>
        <time>2017-08-11T14:47:42Z</time>
      </trkpt>
      <trkpt lat="44.96978" lon="0.76702">
        <ele>154.91</ele>
        <time>2017-08-11T14:47:49Z</time>
      </trkpt>
      <trkpt lat="44.96969" lon="0.76702">
        <ele>155.39</ele>
        <time>2017-08-11T14:47:58Z</time>
      </trkpt>
      <trkpt lat="44.96959" lon="0.76701">
        <ele>155.39</ele>
        <time>2017-08-11T14:48:06Z</time>
      </trkpt>
      <trkpt lat="44.96944" lon="0.76699">
        <ele>156.83</ele>
        <time>2017-08-11T14:48:21Z</time>
      </trkpt>
      <trkpt lat="44.96931" lon="0.76693">
        <ele>157.79</ele>
        <time>2017-08-11T14:48:34Z</time>
      </trkpt>
      <trkpt lat="44.9693" lon="0.76692">
        <ele>158.27</ele>
        <time>2017-08-11T14:48:36Z</time>
      </trkpt>
      <trkpt lat="44.9692" lon="0.76686">
        <ele>157.79</ele>
        <time>2017-08-11T14:48:48Z</time>
      </trkpt>
      <trkpt lat="44.96908" lon="0.76679">
        <ele>157.79</ele>
        <time>2017-08-11T14:49:02Z</time>
      </trkpt>
      <trkpt lat="44.96908" lon="0.76678">
        <ele>157.79</ele>
        <time>2017-08-11T14:49:03Z</time>
      </trkpt>
      <trkpt lat="44.96901" lon="0.76675">
        <ele>157.79</ele>
        <time>2017-08-11T14:49:17Z</time>
      </trkpt>
      <trkpt lat="44.969" lon="0.76675">
        <ele>157.79</ele>
        <time>2017-08-11T14:49:46Z</time>
      </trkpt>
      <trkpt lat="44.969" lon="0.76674">
        <ele>157.79</ele>
        <time>2017-08-11T14:50:12Z</time>
      </trkpt>
      <trkpt lat="44.969" lon="0.76674">
        <ele>157.31</ele>
        <time>2017-08-11T14:50:39Z</time>
      </trkpt>
      <trkpt lat="44.96899" lon="0.76675">
        <ele>161.16</ele>
        <time>2017-08-11T14:51:04Z</time>
      </trkpt>
      <trkpt lat="44.96899" lon="0.76675">
        <ele>158.27</ele>
        <time>2017-08-11T14:51:05Z</time>
      </trkpt>
      <trkpt lat="44.96899" lon="0.76675">
        <ele>157.31</ele>
        <time>2017-08-11T14:51:07Z</time>
      </trkpt>
      <trkpt lat="44.96899" lon="0.76675">
        <ele>157.31</ele>
        <time>2017-08-11T14:51:09Z</time>
      </trkpt>
      <trkpt lat="44.96888" lon="0.7667">
        <ele>157.79</ele>
        <time>2017-08-11T14:51:22Z</time>
      </trkpt>
      <trkpt lat="44.96872" lon="0.76665">
        <ele>158.27</ele>
        <time>2017-08-11T14:51:35Z</time>
      </trkpt>
      <trkpt lat="44.96871" lon="0.76664">
        <ele>158.27</ele>
        <time>2017-08-11T14:51:37Z</time>
      </trkpt>
      <trkpt lat="44.96866" lon="0.76663">
        <ele>157.79</ele>
        <time>2017-08-11T14:51:42Z</time>
      </trkpt>
      <trkpt lat="44.96864" lon="0.76662">
        <ele>158.27</ele>
        <time>2017-08-11T14:51:44Z</time>
      </trkpt>
      <trkpt lat="44.9685" lon="0.76658">
        <ele>158.75</ele>
        <time>2017-08-11T14:51:57Z</time>
      </trkpt>
      <trkpt lat="44.96837" lon="0.76655">
        <ele>159.24</ele>
        <time>2017-08-11T14:52:09Z</time>
      </trkpt>
      <trkpt lat="44.96829" lon="0.76652">
        <ele>159.24</ele>
        <time>2017-08-11T14:52:17Z</time>
      </trkpt>
      <trkpt lat="44.96824" lon="0.7665">
        <ele>159.24</ele>
        <time>2017-08-11T14:52:22Z</time>
      </trkpt>
      <trkpt lat="44.96807" lon="0.76645">
        <ele>159.72</ele>
        <time>2017-08-11T14:52:37Z</time>
      </trkpt>
      <trkpt lat="44.96806" lon="0.76644">
        <ele>159.72</ele>
        <time>2017-08-11T14:52:38Z</time>
      </trkpt>
      <trkpt lat="44.96802" lon="0.76643">
        <ele>159.72</ele>
        <time>2017-08-11T14:52:42Z</time>
      </trkpt>
      <trkpt lat="44.96788" lon="0.76638">
        <ele>159.72</ele>
        <time>2017-08-11T14:52:56Z</time>
      </trkpt>
      <trkpt lat="44.96773" lon="0.7664">
        <ele>159.72</ele>
        <time>2017-08-11T14:53:10Z</time>
      </trkpt>
      <trkpt lat="44.96762" lon="0.7664">
        <ele>160.2</ele>
        <time>2017-08-11T14:53:21Z</time>
      </trkpt>
      <trkpt lat="44.96749" lon="0.76645">
        <ele>160.2</ele>
        <time>2017-08-11T14:53:33Z</time>
      </trkpt>
      <trkpt lat="44.96744" lon="0.76645">
        <ele>160.2</ele>
        <time>2017-08-11T14:53:37Z</time>
      </trkpt>
      <trkpt lat="44.96741" lon="0.76646">
        <ele>160.2</ele>
        <time>2017-08-11T14:53:40Z</time>
      </trkpt>
      <trkpt lat="44.96738" lon="0.76647">
        <ele>160.2</ele>
        <time>2017-08-11T14:53:42Z</time>
      </trkpt>
      <trkpt lat="44.96732" lon="0.76649">
        <ele>160.2</ele>
        <time>2017-08-11T14:53:48Z</time>
      </trkpt>
      <trkpt lat="44.96721" lon="0.76654">
        <ele>160.68</ele>
        <time>2017-08-11T14:53:59Z</time>
      </trkpt>
      <trkpt lat="44.96707" lon="0.76659">
        <ele>161.16</ele>
        <time>2017-08-11T14:54:11Z</time>
      </trkpt>
      <trkpt lat="44.96702" lon="0.76662">
        <ele>160.68</ele>
        <time>2017-08-11T14:54:16Z</time>
      </trkpt>
      <trkpt lat="44.96689" lon="0.76666">
        <ele>161.16</ele>
        <time>2017-08-11T14:54:30Z</time>
      </trkpt>
      <trkpt lat="44.96678" lon="0.7667">
        <ele>161.64</ele>
        <time>2017-08-11T14:54:40Z</time>
      </trkpt>
      <trkpt lat="44.96676" lon="0.76671">
        <ele>161.64</ele>
        <time>2017-08-11T14:54:42Z</time>
      </trkpt>
      <trkpt lat="44.96664" lon="0.76676">
        <ele>162.12</ele>
        <time>2017-08-11T14:54:54Z</time>
      </trkpt>
      <trkpt lat="44.9666" lon="0.76678">
        <ele>162.6</ele>
        <time>2017-08-11T14:54:58Z</time>
      </trkpt>
      <trkpt lat="44.96652" lon="0.76681">
        <ele>162.6</ele>
        <time>2017-08-11T14:55:06Z</time>
      </trkpt>
      <trkpt lat="44.96638" lon="0.76686">
        <ele>162.6</ele>
        <time>2017-08-11T14:55:19Z</time>
      </trkpt>
      <trkpt lat="44.96637" lon="0.76687">
        <ele>163.56</ele>
        <time>2017-08-11T14:55:23Z</time>
      </trkpt>
      <trkpt lat="44.96634" lon="0.76689">
        <ele>162.6</ele>
        <time>2017-08-11T14:55:26Z</time>
      </trkpt>
      <trkpt lat="44.9663" lon="0.7669">
        <ele>162.6</ele>
        <time>2017-08-11T14:55:29Z</time>
      </trkpt>
      <trkpt lat="44.96617" lon="0.76696">
        <ele>162.6</ele>
        <time>2017-08-11T14:55:42Z</time>
      </trkpt>
      <trkpt lat="44.96611" lon="0.76699">
        <ele>162.6</ele>
        <time>2017-08-11T14:55:50Z</time>
      </trkpt>
      <trkpt lat="44.96606" lon="0.767">
        <ele>162.6</ele>
        <time>2017-08-11T14:55:53Z</time>
      </trkpt>
      <trkpt lat="44.96603" lon="0.76701">
        <ele>163.08</ele>
        <time>2017-08-11T14:55:56Z</time>
      </trkpt>
      <trkpt lat="44.96598" lon="0.76702">
        <ele>163.08</ele>
        <time>2017-08-11T14:56:02Z</time>
      </trkpt>
      <trkpt lat="44.96594" lon="0.76703">
        <ele>163.08</ele>
        <time>2017-08-11T14:56:07Z</time>
      </trkpt>
      <trkpt lat="44.96593" lon="0.76707">
        <ele>163.08</ele>
        <time>2017-08-11T14:56:10Z</time>
      </trkpt>
      <trkpt lat="44.96585" lon="0.76713">
        <ele>162.6</ele>
        <time>2017-08-11T14:56:18Z</time>
      </trkpt>
      <trkpt lat="44.96579" lon="0.76725">
        <ele>163.56</ele>
        <time>2017-08-11T14:56:31Z</time>
      </trkpt>
      <trkpt lat="44.96578" lon="0.76726">
        <ele>163.08</ele>
        <time>2017-08-11T14:56:56Z</time>
      </trkpt>
      <trkpt lat="44.96577" lon="0.76725">
        <ele>163.56</ele>
        <time>2017-08-11T14:56:58Z</time>
      </trkpt>
      <trkpt lat="44.96572" lon="0.76728">
        <ele>163.56</ele>
        <time>2017-08-11T14:57:03Z</time>
      </trkpt>
      <trkpt lat="44.96562" lon="0.76733">
        <ele>165.48</ele>
        <time>2017-08-11T14:57:17Z</time>
      </trkpt>
      <trkpt lat="44.96553" lon="0.76723">
        <ele>166.93</ele>
        <time>2017-08-11T14:57:32Z</time>
      </trkpt>
      <trkpt lat="44.96543" lon="0.76712">
        <ele>167.89</ele>
        <time>2017-08-11T14:57:47Z</time>
      </trkpt>
      <trkpt lat="44.96533" lon="0.76702">
        <ele>168.85</ele>
        <time>2017-08-11T14:58:00Z</time>
      </trkpt>
      <trkpt lat="44.96522" lon="0.76696">
        <ele>170.77</ele>
        <time>2017-08-11T14:58:14Z</time>
      </trkpt>
      <trkpt lat="44.96509" lon="0.76692">
        <ele>171.73</ele>
        <time>2017-08-11T14:58:28Z</time>
      </trkpt>
      <trkpt lat="44.96503" lon="0.76689">
        <ele>172.69</ele>
        <time>2017-08-11T14:58:35Z</time>
      </trkpt>
      <trkpt lat="44.96501" lon="0.76688">
        <ele>173.17</ele>
        <time>2017-08-11T14:58:37Z</time>
      </trkpt>
      <trkpt lat="44.96492" lon="0.76684">
        <ele>174.62</ele>
        <time>2017-08-11T14:58:49Z</time>
      </trkpt>
      <trkpt lat="44.96479" lon="0.7668">
        <ele>176.06</ele>
        <time>2017-08-11T14:59:04Z</time>
      </trkpt>
      <trkpt lat="44.96473" lon="0.76681">
        <ele>177.02</ele>
        <time>2017-08-11T14:59:12Z</time>
      </trkpt>
      <trkpt lat="44.96462" lon="0.76679">
        <ele>177.98</ele>
        <time>2017-08-11T14:59:24Z</time>
      </trkpt>
      <trkpt lat="44.9645" lon="0.76679">
        <ele>178.94</ele>
        <time>2017-08-11T14:59:38Z</time>
      </trkpt>
      <trkpt lat="44.9644" lon="0.7668">
        <ele>180.38</ele>
        <time>2017-08-11T14:59:50Z</time>
      </trkpt>
      <trkpt lat="44.9643" lon="0.76682">
        <ele>181.83</ele>
        <time>2017-08-11T15:00:04Z</time>
      </trkpt>
      <trkpt lat="44.96417" lon="0.76684">
        <ele>183.75</ele>
        <time>2017-08-11T15:00:18Z</time>
      </trkpt>
      <trkpt lat="44.96408" lon="0.76684">
        <ele>185.19</ele>
        <time>2017-08-11T15:00:29Z</time>
      </trkpt>
      <trkpt lat="44.96399" lon="0.76681">
        <ele>186.63</ele>
        <time>2017-08-11T15:00:41Z</time>
      </trkpt>
      <trkpt lat="44.96386" lon="0.76679">
        <ele>188.08</ele>
        <time>2017-08-11T15:00:55Z</time>
      </trkpt>
      <trkpt lat="44.96382" lon="0.76677">
        <ele>189.04</ele>
        <time>2017-08-11T15:01:01Z</time>
      </trkpt>
      <trkpt lat="44.96371" lon="0.76675">
        <ele>190</ele>
        <time>2017-08-11T15:01:11Z</time>
      </trkpt>
      <trkpt lat="44.96368" lon="0.76674">
        <ele>190.48</ele>
        <time>2017-08-11T15:01:14Z</time>
      </trkpt>
      <trkpt lat="44.96366" lon="0.76673">
        <ele>190.48</ele>
        <time>2017-08-11T15:01:16Z</time>
      </trkpt>
      <trkpt lat="44.96364" lon="0.76673">
        <ele>190.48</ele>
        <time>2017-08-11T15:01:18Z</time>
      </trkpt>
      <trkpt lat="44.96358" lon="0.76671">
        <ele>191.44</ele>
        <time>2017-08-11T15:01:26Z</time>
      </trkpt>
      <trkpt lat="44.96351" lon="0.76669">
        <ele>192.4</ele>
        <time>2017-08-11T15:01:35Z</time>
      </trkpt>
      <trkpt lat="44.9634" lon="0.76667">
        <ele>192.88</ele>
        <time>2017-08-11T15:01:46Z</time>
      </trkpt>
      <trkpt lat="44.96324" lon="0.76666">
        <ele>194.32</ele>
        <time>2017-08-11T15:02:01Z</time>
      </trkpt>
      <trkpt lat="44.96321" lon="0.76665">
        <ele>194.8</ele>
        <time>2017-08-11T15:02:05Z</time>
      </trkpt>
      <trkpt lat="44.96319" lon="0.76665">
        <ele>194.8</ele>
        <time>2017-08-11T15:02:07Z</time>
      </trkpt>
      <trkpt lat="44.96313" lon="0.76665">
        <ele>194.8</ele>
        <time>2017-08-11T15:02:12Z</time>
      </trkpt>
      <trkpt lat="44.96305" lon="0.76664">
        <ele>195.28</ele>
        <time>2017-08-11T15:02:20Z</time>
      </trkpt>
      <trkpt lat="44.96302" lon="0.76663">
        <ele>195.28</ele>
        <time>2017-08-11T15:02:23Z</time>
      </trkpt>
      <trkpt lat="44.96297" lon="0.76662">
        <ele>195.77</ele>
        <time>2017-08-11T15:02:28Z</time>
      </trkpt>
      <trkpt lat="44.96288" lon="0.7666">
        <ele>196.25</ele>
        <time>2017-08-11T15:02:37Z</time>
      </trkpt>
      <trkpt lat="44.96285" lon="0.7666">
        <ele>196.25</ele>
        <time>2017-08-11T15:02:40Z</time>
      </trkpt>
      <trkpt lat="44.96271" lon="0.76657">
        <ele>196.73</ele>
        <time>2017-08-11T15:02:55Z</time>
      </trkpt>
      <trkpt lat="44.96258" lon="0.76654">
        <ele>197.21</ele>
        <time>2017-08-11T15:03:08Z</time>
      </trkpt>
      <trkpt lat="44.96254" lon="0.76653">
        <ele>197.21</ele>
        <time>2017-08-11T15:03:12Z</time>
      </trkpt>
      <trkpt lat="44.96243" lon="0.76649">
        <ele>197.21</ele>
        <time>2017-08-11T15:03:22Z</time>
      </trkpt>
      <trkpt lat="44.96235" lon="0.76647">
        <ele>197.69</ele>
        <time>2017-08-11T15:03:30Z</time>
      </trkpt>
      <trkpt lat="44.96231" lon="0.76647">
        <ele>197.21</ele>
        <time>2017-08-11T15:03:34Z</time>
      </trkpt>
      <trkpt lat="44.96218" lon="0.76644">
        <ele>197.21</ele>
        <time>2017-08-11T15:03:47Z</time>
      </trkpt>
      <trkpt lat="44.96212" lon="0.76642">
        <ele>197.21</ele>
        <time>2017-08-11T15:03:53Z</time>
      </trkpt>
      <trkpt lat="44.96205" lon="0.76639">
        <ele>197.69</ele>
        <time>2017-08-11T15:04:02Z</time>
      </trkpt>
      <trkpt lat="44.96189" lon="0.76633">
        <ele>198.17</ele>
        <time>2017-08-11T15:04:17Z</time>
      </trkpt>
      <trkpt lat="44.96185" lon="0.76633">
        <ele>197.69</ele>
        <time>2017-08-11T15:04:21Z</time>
      </trkpt>
      <trkpt lat="44.96175" lon="0.76631">
        <ele>198.17</ele>
        <time>2017-08-11T15:04:32Z</time>
      </trkpt>
      <trkpt lat="44.96168" lon="0.76628">
        <ele>198.17</ele>
        <time>2017-08-11T15:04:40Z</time>
      </trkpt>
      <trkpt lat="44.96165" lon="0.76627">
        <ele>197.69</ele>
        <time>2017-08-11T15:04:43Z</time>
      </trkpt>
      <trkpt lat="44.96158" lon="0.76626">
        <ele>198.17</ele>
        <time>2017-08-11T15:04:50Z</time>
      </trkpt>
      <trkpt lat="44.96155" lon="0.76626">
        <ele>198.17</ele>
        <time>2017-08-11T15:04:53Z</time>
      </trkpt>
      <trkpt lat="44.96143" lon="0.76627">
        <ele>198.17</ele>
        <time>2017-08-11T15:05:05Z</time>
      </trkpt>
      <trkpt lat="44.96134" lon="0.76621">
        <ele>198.65</ele>
        <time>2017-08-11T15:05:17Z</time>
      </trkpt>
      <trkpt lat="44.96129" lon="0.76615">
        <ele>199.13</ele>
        <time>2017-08-11T15:05:33Z</time>
      </trkpt>
      <trkpt lat="44.96124" lon="0.76619">
        <ele>198.65</ele>
        <time>2017-08-11T15:05:45Z</time>
      </trkpt>
      <trkpt lat="44.96126" lon="0.76613">
        <ele>199.13</ele>
        <time>2017-08-11T15:06:01Z</time>
      </trkpt>
      <trkpt lat="44.96126" lon="0.76611">
        <ele>199.61</ele>
        <time>2017-08-11T15:06:19Z</time>
      </trkpt>
      <trkpt lat="44.96127" lon="0.7661">
        <ele>199.61</ele>
        <time>2017-08-11T15:06:40Z</time>
      </trkpt>
      <trkpt lat="44.96128" lon="0.7661">
        <ele>199.61</ele>
        <time>2017-08-11T15:07:04Z</time>
      </trkpt>
      <trkpt lat="44.96128" lon="0.7661">
        <ele>199.13</ele>
        <time>2017-08-11T15:07:29Z</time>
      </trkpt>
      <trkpt lat="44.96129" lon="0.7661">
        <ele>200.09</ele>
        <time>2017-08-11T15:07:51Z</time>
      </trkpt>
      <trkpt lat="44.96129" lon="0.7661">
        <ele>199.61</ele>
        <time>2017-08-11T15:08:13Z</time>
      </trkpt>
      <trkpt lat="44.96129" lon="0.7661">
        <ele>199.61</ele>
        <time>2017-08-11T15:08:39Z</time>
      </trkpt>
      <trkpt lat="44.96129" lon="0.7661">
        <ele>199.61</ele>
        <time>2017-08-11T15:08:52Z</time>
      </trkpt>
      <trkpt lat="44.9613" lon="0.76597">
        <ele>200.57</ele>
        <time>2017-08-11T15:09:03Z</time>
      </trkpt>
      <trkpt lat="44.96127" lon="0.76584">
        <ele>201.05</ele>
        <time>2017-08-11T15:09:14Z</time>
      </trkpt>
      <trkpt lat="44.96122" lon="0.76578">
        <ele>201.53</ele>
        <time>2017-08-11T15:09:19Z</time>
      </trkpt>
      <trkpt lat="44.9612" lon="0.76575">
        <ele>201.53</ele>
        <time>2017-08-11T15:09:22Z</time>
      </trkpt>
      <trkpt lat="44.96118" lon="0.76573">
        <ele>202.49</ele>
        <time>2017-08-11T15:09:25Z</time>
      </trkpt>
      <trkpt lat="44.96108" lon="0.76562">
        <ele>202.01</ele>
        <time>2017-08-11T15:09:38Z</time>
      </trkpt>
      <trkpt lat="44.96102" lon="0.76551">
        <ele>202.01</ele>
        <time>2017-08-11T15:09:51Z</time>
      </trkpt>
      <trkpt lat="44.96103" lon="0.76549">
        <ele>202.01</ele>
        <time>2017-08-11T15:10:16Z</time>
      </trkpt>
      <trkpt lat="44.96103" lon="0.76549">
        <ele>201.53</ele>
        <time>2017-08-11T15:10:18Z</time>
      </trkpt>
      <trkpt lat="44.96108" lon="0.76536">
        <ele>202.01</ele>
        <time>2017-08-11T15:10:31Z</time>
      </trkpt>
      <trkpt lat="44.96107" lon="0.76536">
        <ele>202.01</ele>
        <time>2017-08-11T15:10:49Z</time>
      </trkpt>
      <trkpt lat="44.9611" lon="0.76532">
        <ele>202.01</ele>
        <time>2017-08-11T15:11:02Z</time>
      </trkpt>
      <trkpt lat="44.96119" lon="0.7652">
        <ele>202.98</ele>
        <time>2017-08-11T15:11:16Z</time>
      </trkpt>
      <trkpt lat="44.96131" lon="0.76507">
        <ele>203.46</ele>
        <time>2017-08-11T15:11:32Z</time>
      </trkpt>
      <trkpt lat="44.96134" lon="0.765">
        <ele>203.94</ele>
        <time>2017-08-11T15:11:37Z</time>
      </trkpt>
      <trkpt lat="44.96136" lon="0.76495">
        <ele>203.94</ele>
        <time>2017-08-11T15:11:41Z</time>
      </trkpt>
      <trkpt lat="44.96138" lon="0.7649">
        <ele>203.94</ele>
        <time>2017-08-11T15:11:46Z</time>
      </trkpt>
      <trkpt lat="44.96139" lon="0.76485">
        <ele>203.94</ele>
        <time>2017-08-11T15:11:49Z</time>
      </trkpt>
      <trkpt lat="44.96142" lon="0.76479">
        <ele>204.42</ele>
        <time>2017-08-11T15:11:53Z</time>
      </trkpt>
      <trkpt lat="44.96147" lon="0.76465">
        <ele>204.42</ele>
        <time>2017-08-11T15:12:05Z</time>
      </trkpt>
      <trkpt lat="44.9615" lon="0.76451">
        <ele>205.38</ele>
        <time>2017-08-11T15:12:15Z</time>
      </trkpt>
      <trkpt lat="44.9615" lon="0.76448">
        <ele>204.9</ele>
        <time>2017-08-11T15:12:17Z</time>
      </trkpt>
      <trkpt lat="44.96155" lon="0.76429">
        <ele>205.86</ele>
        <time>2017-08-11T15:12:32Z</time>
      </trkpt>
      <trkpt lat="44.96156" lon="0.76425">
        <ele>205.86</ele>
        <time>2017-08-11T15:12:35Z</time>
      </trkpt>
      <trkpt lat="44.96161" lon="0.76412">
        <ele>206.34</ele>
        <time>2017-08-11T15:12:46Z</time>
      </trkpt>
      <trkpt lat="44.96162" lon="0.76405">
        <ele>206.82</ele>
        <time>2017-08-11T15:12:51Z</time>
      </trkpt>
      <trkpt lat="44.96166" lon="0.76392">
        <ele>207.3</ele>
        <time>2017-08-11T15:13:02Z</time>
      </trkpt>
      <trkpt lat="44.96167" lon="0.76391">
        <ele>207.3</ele>
        <time>2017-08-11T15:13:04Z</time>
      </trkpt>
      <trkpt lat="44.96172" lon="0.76373">
        <ele>206.82</ele>
        <time>2017-08-11T15:13:16Z</time>
      </trkpt>
      <trkpt lat="44.96174" lon="0.76356">
        <ele>207.78</ele>
        <time>2017-08-11T15:13:30Z</time>
      </trkpt>
      <trkpt lat="44.96173" lon="0.76348">
        <ele>208.26</ele>
        <time>2017-08-11T15:13:37Z</time>
      </trkpt>
      <trkpt lat="44.96171" lon="0.76337">
        <ele>208.74</ele>
        <time>2017-08-11T15:13:44Z</time>
      </trkpt>
      <trkpt lat="44.96169" lon="0.7632">
        <ele>209.22</ele>
        <time>2017-08-11T15:13:58Z</time>
      </trkpt>
      <trkpt lat="44.96168" lon="0.76314">
        <ele>209.22</ele>
        <time>2017-08-11T15:14:01Z</time>
      </trkpt>
      <trkpt lat="44.96164" lon="0.76293">
        <ele>209.7</ele>
        <time>2017-08-11T15:14:14Z</time>
      </trkpt>
      <trkpt lat="44.9616" lon="0.76285">
        <ele>210.67</ele>
        <time>2017-08-11T15:14:29Z</time>
      </trkpt>
      <trkpt lat="44.9616" lon="0.76283">
        <ele>211.15</ele>
        <time>2017-08-11T15:15:01Z</time>
      </trkpt>
      <trkpt lat="44.9616" lon="0.76283">
        <ele>211.15</ele>
        <time>2017-08-11T15:15:27Z</time>
      </trkpt>
      <trkpt lat="44.9616" lon="0.76283">
        <ele>210.67</ele>
        <time>2017-08-11T15:15:51Z</time>
      </trkpt>
      <trkpt lat="44.96162" lon="0.76278">
        <ele>210.67</ele>
        <time>2017-08-11T15:16:13Z</time>
      </trkpt>
      <trkpt lat="44.96163" lon="0.76264">
        <ele>211.63</ele>
        <time>2017-08-11T15:16:28Z</time>
      </trkpt>
      <trkpt lat="44.96162" lon="0.76251">
        <ele>211.63</ele>
        <time>2017-08-11T15:16:42Z</time>
      </trkpt>
      <trkpt lat="44.9616" lon="0.76242">
        <ele>211.15</ele>
        <time>2017-08-11T15:16:54Z</time>
      </trkpt>
      <trkpt lat="44.96159" lon="0.76232">
        <ele>210.19</ele>
        <time>2017-08-11T15:17:11Z</time>
      </trkpt>
      <trkpt lat="44.96153" lon="0.76219">
        <ele>210.19</ele>
        <time>2017-08-11T15:17:22Z</time>
      </trkpt>
      <trkpt lat="44.96144" lon="0.76204">
        <ele>210.19</ele>
        <time>2017-08-11T15:17:37Z</time>
      </trkpt>
      <trkpt lat="44.96133" lon="0.7619">
        <ele>209.7</ele>
        <time>2017-08-11T15:17:51Z</time>
      </trkpt>
      <trkpt lat="44.96131" lon="0.76175">
        <ele>208.74</ele>
        <time>2017-08-11T15:18:04Z</time>
      </trkpt>
      <trkpt lat="44.96129" lon="0.7616">
        <ele>207.78</ele>
        <time>2017-08-11T15:18:17Z</time>
      </trkpt>
      <trkpt lat="44.96127" lon="0.76146">
        <ele>206.82</ele>
        <time>2017-08-11T15:18:29Z</time>
      </trkpt>
      <trkpt lat="44.96127" lon="0.76135">
        <ele>205.86</ele>
        <time>2017-08-11T15:18:41Z</time>
      </trkpt>
      <trkpt lat="44.96126" lon="0.76124">
        <ele>204.42</ele>
        <time>2017-08-11T15:18:56Z</time>
      </trkpt>
      <trkpt lat="44.96124" lon="0.76117">
        <ele>204.9</ele>
        <time>2017-08-11T15:19:15Z</time>
      </trkpt>
      <trkpt lat="44.96124" lon="0.76117">
        <ele>209.22</ele>
        <time>2017-08-11T15:19:19Z</time>
      </trkpt>
      <trkpt lat="44.96124" lon="0.76117">
        <ele>205.38</ele>
        <time>2017-08-11T15:19:20Z</time>
      </trkpt>
      <trkpt lat="44.96124" lon="0.76114">
        <ele>204.9</ele>
        <time>2017-08-11T15:19:35Z</time>
      </trkpt>
      <trkpt lat="44.96122" lon="0.76108">
        <ele>204.9</ele>
        <time>2017-08-11T15:20:00Z</time>
      </trkpt>
      <trkpt lat="44.96121" lon="0.76109">
        <ele>202.01</ele>
        <time>2017-08-11T15:20:16Z</time>
      </trkpt>
      <trkpt lat="44.96121" lon="0.76109">
        <ele>205.86</ele>
        <time>2017-08-11T15:20:18Z</time>
      </trkpt>
      <trkpt lat="44.96121" lon="0.76109">
        <ele>204.9</ele>
        <time>2017-08-11T15:20:22Z</time>
      </trkpt>
      <trkpt lat="44.96116" lon="0.76111">
        <ele>204.9</ele>
        <time>2017-08-11T15:20:34Z</time>
      </trkpt>
      <trkpt lat="44.96101" lon="0.76112">
        <ele>205.86</ele>
        <time>2017-08-11T15:20:45Z</time>
      </trkpt>
      <trkpt lat="44.96093" lon="0.76114">
        <ele>205.86</ele>
        <time>2017-08-11T15:20:53Z</time>
      </trkpt>
      <trkpt lat="44.96083" lon="0.76118">
        <ele>205.86</ele>
        <time>2017-08-11T15:21:06Z</time>
      </trkpt>
      <trkpt lat="44.96067" lon="0.76126">
        <ele>205.38</ele>
        <time>2017-08-11T15:21:19Z</time>
      </trkpt>
      <trkpt lat="44.96054" lon="0.76135">
        <ele>204.9</ele>
        <time>2017-08-11T15:21:33Z</time>
      </trkpt>
      <trkpt lat="44.9604" lon="0.7614">
        <ele>204.42</ele>
        <time>2017-08-11T15:21:45Z</time>
      </trkpt>
      <trkpt lat="44.96022" lon="0.76146">
        <ele>203.94</ele>
        <time>2017-08-11T15:21:58Z</time>
      </trkpt>
      <trkpt lat="44.96011" lon="0.7615">
        <ele>202.98</ele>
        <time>2017-08-11T15:22:10Z</time>
      </trkpt>
      <trkpt lat="44.96002" lon="0.76153">
        <ele>203.46</ele>
        <time>2017-08-11T15:22:23Z</time>
      </trkpt>
      <trkpt lat="44.96001" lon="0.76153">
        <ele>202.01</ele>
        <time>2017-08-11T15:22:38Z</time>
      </trkpt>
      <trkpt lat="44.96001" lon="0.76153">
        <ele>205.38</ele>
        <time>2017-08-11T15:22:40Z</time>
      </trkpt>
      <trkpt lat="44.96001" lon="0.76153">
        <ele>202.98</ele>
        <time>2017-08-11T15:22:42Z</time>
      </trkpt>
      <trkpt lat="44.95998" lon="0.76153">
        <ele>202.01</ele>
        <time>2017-08-11T15:22:55Z</time>
      </trkpt>
      <trkpt lat="44.95982" lon="0.76153">
        <ele>201.05</ele>
        <time>2017-08-11T15:23:06Z</time>
      </trkpt>
      <trkpt lat="44.95961" lon="0.76155">
        <ele>200.57</ele>
        <time>2017-08-11T15:23:20Z</time>
      </trkpt>
      <trkpt lat="44.95946" lon="0.76153">
        <ele>200.57</ele>
        <time>2017-08-11T15:23:33Z</time>
      </trkpt>
      <trkpt lat="44.95933" lon="0.76153">
        <ele>200.57</ele>
        <time>2017-08-11T15:23:45Z</time>
      </trkpt>
      <trkpt lat="44.95921" lon="0.76153">
        <ele>201.05</ele>
        <time>2017-08-11T15:23:58Z</time>
      </trkpt>
      <trkpt lat="44.9591" lon="0.76151">
        <ele>202.01</ele>
        <time>2017-08-11T15:24:09Z</time>
      </trkpt>
      <trkpt lat="44.95897" lon="0.7615">
        <ele>203.46</ele>
        <time>2017-08-11T15:24:23Z</time>
      </trkpt>
      <trkpt lat="44.9589" lon="0.76151">
        <ele>204.42</ele>
        <time>2017-08-11T15:24:37Z</time>
      </trkpt>
      <trkpt lat="44.95882" lon="0.76149">
        <ele>205.38</ele>
        <time>2017-08-11T15:24:51Z</time>
      </trkpt>
      <trkpt lat="44.9588" lon="0.76148">
        <ele>205.38</ele>
        <time>2017-08-11T15:24:54Z</time>
      </trkpt>
      <trkpt lat="44.9587" lon="0.76147">
        <ele>205.38</ele>
        <time>2017-08-11T15:25:03Z</time>
      </trkpt>
      <trkpt lat="44.95843" lon="0.76151">
        <ele>205.38</ele>
        <time>2017-08-11T15:25:15Z</time>
      </trkpt>
      <trkpt lat="44.95831" lon="0.76153">
        <ele>204.42</ele>
        <time>2017-08-11T15:25:27Z</time>
      </trkpt>
      <trkpt lat="44.95819" lon="0.76159">
        <ele>203.94</ele>
        <time>2017-08-11T15:25:38Z</time>
      </trkpt>
      <trkpt lat="44.95809" lon="0.76164">
        <ele>202.98</ele>
        <time>2017-08-11T15:25:50Z</time>
      </trkpt>
      <trkpt lat="44.95802" lon="0.76164">
        <ele>202.49</ele>
        <time>2017-08-11T15:25:56Z</time>
      </trkpt>
      <trkpt lat="44.95796" lon="0.76165">
        <ele>202.49</ele>
        <time>2017-08-11T15:26:01Z</time>
      </trkpt>
      <trkpt lat="44.95782" lon="0.76172">
        <ele>202.49</ele>
        <time>2017-08-11T15:26:14Z</time>
      </trkpt>
      <trkpt lat="44.95768" lon="0.76174">
        <ele>203.46</ele>
        <time>2017-08-11T15:26:27Z</time>
      </trkpt>
      <trkpt lat="44.95756" lon="0.76178">
        <ele>203.94</ele>
        <time>2017-08-11T15:26:38Z</time>
      </trkpt>
      <trkpt lat="44.95748" lon="0.76178">
        <ele>204.42</ele>
        <time>2017-08-11T15:26:46Z</time>
      </trkpt>
      <trkpt lat="44.95732" lon="0.76178">
        <ele>205.38</ele>
        <time>2017-08-11T15:27:00Z</time>
      </trkpt>
      <trkpt lat="44.95725" lon="0.76179">
        <ele>206.34</ele>
        <time>2017-08-11T15:27:09Z</time>
      </trkpt>
      <trkpt lat="44.95711" lon="0.76186">
        <ele>206.34</ele>
        <time>2017-08-11T15:27:22Z</time>
      </trkpt>
      <trkpt lat="44.95708" lon="0.76187">
        <ele>206.34</ele>
        <time>2017-08-11T15:27:36Z</time>
      </trkpt>
      <trkpt lat="44.95707" lon="0.76187">
        <ele>206.34</ele>
        <time>2017-08-11T15:27:39Z</time>
      </trkpt>
      <trkpt lat="44.957" lon="0.76189">
        <ele>206.34</ele>
        <time>2017-08-11T15:27:51Z</time>
      </trkpt>
      <trkpt lat="44.95688" lon="0.76191">
        <ele>206.34</ele>
        <time>2017-08-11T15:28:04Z</time>
      </trkpt>
      <trkpt lat="44.95683" lon="0.76191">
        <ele>206.34</ele>
        <time>2017-08-11T15:28:26Z</time>
      </trkpt>
      <trkpt lat="44.95683" lon="0.7619">
        <ele>205.86</ele>
        <time>2017-08-11T15:28:43Z</time>
      </trkpt>
      <trkpt lat="44.95681" lon="0.76187">
        <ele>205.86</ele>
        <time>2017-08-11T15:28:57Z</time>
      </trkpt>
      <trkpt lat="44.9568" lon="0.76185">
        <ele>205.86</ele>
        <time>2017-08-11T15:29:24Z</time>
      </trkpt>
      <trkpt lat="44.9568" lon="0.76184">
        <ele>205.38</ele>
        <time>2017-08-11T15:29:50Z</time>
      </trkpt>
      <trkpt lat="44.9568" lon="0.76184">
        <ele>205.38</ele>
        <time>2017-08-11T15:30:04Z</time>
      </trkpt>
      <trkpt lat="44.95682" lon="0.76172">
        <ele>204.42</ele>
        <time>2017-08-11T15:30:12Z</time>
      </trkpt>
      <trkpt lat="44.95683" lon="0.76148">
        <ele>204.42</ele>
        <time>2017-08-11T15:30:26Z</time>
      </trkpt>
      <trkpt lat="44.95684" lon="0.76125">
        <ele>203.94</ele>
        <time>2017-08-11T15:30:41Z</time>
      </trkpt>
      <trkpt lat="44.95683" lon="0.7612">
        <ele>202.49</ele>
        <time>2017-08-11T15:30:45Z</time>
      </trkpt>
      <trkpt lat="44.95682" lon="0.76113">
        <ele>203.46</ele>
        <time>2017-08-11T15:30:49Z</time>
      </trkpt>
      <trkpt lat="44.95681" lon="0.76101">
        <ele>203.46</ele>
        <time>2017-08-11T15:30:55Z</time>
      </trkpt>
      <trkpt lat="44.9568" lon="0.76097">
        <ele>203.94</ele>
        <time>2017-08-11T15:30:59Z</time>
      </trkpt>
      <trkpt lat="44.95677" lon="0.76083">
        <ele>203.46</ele>
        <time>2017-08-11T15:31:08Z</time>
      </trkpt>
      <trkpt lat="44.95676" lon="0.76077">
        <ele>203.46</ele>
        <time>2017-08-11T15:31:12Z</time>
      </trkpt>
      <trkpt lat="44.95676" lon="0.76051">
        <ele>203.46</ele>
        <time>2017-08-11T15:31:28Z</time>
      </trkpt>
      <trkpt lat="44.95675" lon="0.7604">
        <ele>203.46</ele>
        <time>2017-08-11T15:31:35Z</time>
      </trkpt>
      <trkpt lat="44.95674" lon="0.76028">
        <ele>203.46</ele>
        <time>2017-08-11T15:31:43Z</time>
      </trkpt>
      <trkpt lat="44.95673" lon="0.76025">
        <ele>203.46</ele>
        <time>2017-08-11T15:31:45Z</time>
      </trkpt>
      <trkpt lat="44.95672" lon="0.76016">
        <ele>202.98</ele>
        <time>2017-08-11T15:31:50Z</time>
      </trkpt>
      <trkpt lat="44.9567" lon="0.75992">
        <ele>202.98</ele>
        <time>2017-08-11T15:32:06Z</time>
      </trkpt>
      <trkpt lat="44.95669" lon="0.75978">
        <ele>203.46</ele>
        <time>2017-08-11T15:32:16Z</time>
      </trkpt>
      <trkpt lat="44.95667" lon="0.75954">
        <ele>202.98</ele>
        <time>2017-08-11T15:32:31Z</time>
      </trkpt>
      <trkpt lat="44.95667" lon="0.75947">
        <ele>202.49</ele>
        <time>2017-08-11T15:32:37Z</time>
      </trkpt>
      <trkpt lat="44.95665" lon="0.75928">
        <ele>202.98</ele>
        <time>2017-08-11T15:32:50Z</time>
      </trkpt>
      <trkpt lat="44.95665" lon="0.75924">
        <ele>203.46</ele>
        <time>2017-08-11T15:32:53Z</time>
      </trkpt>
      <trkpt lat="44.95664" lon="0.75913">
        <ele>202.98</ele>
        <time>2017-08-11T15:32:59Z</time>
      </trkpt>
      <trkpt lat="44.95664" lon="0.75909">
        <ele>203.46</ele>
        <time>2017-08-11T15:33:02Z</time>
      </trkpt>
      <trkpt lat="44.95662" lon="0.75889">
        <ele>203.46</ele>
        <time>2017-08-11T15:33:13Z</time>
      </trkpt>
      <trkpt lat="44.95662" lon="0.75869">
        <ele>203.46</ele>
        <time>2017-08-11T15:33:25Z</time>
      </trkpt>
      <trkpt lat="44.95661" lon="0.75865">
        <ele>202.98</ele>
        <time>2017-08-11T15:33:28Z</time>
      </trkpt>
      <trkpt lat="44.95662" lon="0.75847">
        <ele>203.46</ele>
        <time>2017-08-11T15:33:40Z</time>
      </trkpt>
      <trkpt lat="44.95663" lon="0.75843">
        <ele>203.46</ele>
        <time>2017-08-11T15:33:43Z</time>
      </trkpt>
      <trkpt lat="44.95662" lon="0.75824">
        <ele>203.46</ele>
        <time>2017-08-11T15:33:56Z</time>
      </trkpt>
      <trkpt lat="44.95662" lon="0.75806">
        <ele>203.46</ele>
        <time>2017-08-11T15:34:08Z</time>
      </trkpt>
      <trkpt lat="44.95662" lon="0.75797">
        <ele>203.94</ele>
        <time>2017-08-11T15:34:14Z</time>
      </trkpt>
      <trkpt lat="44.95662" lon="0.75794">
        <ele>203.94</ele>
        <time>2017-08-11T15:34:16Z</time>
      </trkpt>
      <trkpt lat="44.95662" lon="0.75791">
        <ele>203.94</ele>
        <time>2017-08-11T15:34:18Z</time>
      </trkpt>
      <trkpt lat="44.95662" lon="0.75783">
        <ele>203.46</ele>
        <time>2017-08-11T15:34:24Z</time>
      </trkpt>
      <trkpt lat="44.95668" lon="0.75762">
        <ele>203.94</ele>
        <time>2017-08-11T15:34:39Z</time>
      </trkpt>
      <trkpt lat="44.95673" lon="0.75744">
        <ele>203.94</ele>
        <time>2017-08-11T15:34:52Z</time>
      </trkpt>
      <trkpt lat="44.95677" lon="0.75726">
        <ele>203.94</ele>
        <time>2017-08-11T15:35:07Z</time>
      </trkpt>
      <trkpt lat="44.95679" lon="0.75707">
        <ele>203.94</ele>
        <time>2017-08-11T15:35:20Z</time>
      </trkpt>
      <trkpt lat="44.95682" lon="0.75692">
        <ele>203.46</ele>
        <time>2017-08-11T15:35:31Z</time>
      </trkpt>
      <trkpt lat="44.95686" lon="0.75676">
        <ele>202.98</ele>
        <time>2017-08-11T15:35:43Z</time>
      </trkpt>
      <trkpt lat="44.95687" lon="0.75664">
        <ele>202.49</ele>
        <time>2017-08-11T15:35:57Z</time>
      </trkpt>
      <trkpt lat="44.9569" lon="0.75653">
        <ele>202.01</ele>
        <time>2017-08-11T15:36:10Z</time>
      </trkpt>
      <trkpt lat="44.95689" lon="0.75645">
        <ele>201.53</ele>
        <time>2017-08-11T15:36:28Z</time>
      </trkpt>
      <trkpt lat="44.95689" lon="0.75642">
        <ele>201.53</ele>
        <time>2017-08-11T15:36:31Z</time>
      </trkpt>
      <trkpt lat="44.95692" lon="0.75623">
        <ele>200.57</ele>
        <time>2017-08-11T15:36:45Z</time>
      </trkpt>
      <trkpt lat="44.95694" lon="0.75603">
        <ele>199.61</ele>
        <time>2017-08-11T15:36:58Z</time>
      </trkpt>
      <trkpt lat="44.95695" lon="0.756">
        <ele>200.09</ele>
        <time>2017-08-11T15:37:00Z</time>
      </trkpt>
      <trkpt lat="44.95697" lon="0.75584">
        <ele>199.13</ele>
        <time>2017-08-11T15:37:12Z</time>
      </trkpt>
      <trkpt lat="44.95698" lon="0.75563">
        <ele>198.17</ele>
        <time>2017-08-11T15:37:24Z</time>
      </trkpt>
      <trkpt lat="44.95703" lon="0.75549">
        <ele>197.21</ele>
        <time>2017-08-11T15:37:38Z</time>
      </trkpt>
      <trkpt lat="44.95703" lon="0.75533">
        <ele>196.73</ele>
        <time>2017-08-11T15:37:51Z</time>
      </trkpt>
      <trkpt lat="44.95704" lon="0.75527">
        <ele>196.25</ele>
        <time>2017-08-11T15:38:09Z</time>
      </trkpt>
      <trkpt lat="44.95708" lon="0.75508">
        <ele>195.77</ele>
        <time>2017-08-11T15:38:23Z</time>
      </trkpt>
      <trkpt lat="44.95713" lon="0.75489">
        <ele>195.77</ele>
        <time>2017-08-11T15:38:33Z</time>
      </trkpt>
      <trkpt lat="44.95721" lon="0.75465">
        <ele>195.28</ele>
        <time>2017-08-11T15:38:47Z</time>
      </trkpt>
      <trkpt lat="44.95727" lon="0.75449">
        <ele>195.28</ele>
        <time>2017-08-11T15:39:02Z</time>
      </trkpt>
      <trkpt lat="44.95734" lon="0.75434">
        <ele>194.8</ele>
        <time>2017-08-11T15:39:14Z</time>
      </trkpt>
      <trkpt lat="44.95743" lon="0.75417">
        <ele>194.8</ele>
        <time>2017-08-11T15:39:28Z</time>
      </trkpt>
      <trkpt lat="44.95752" lon="0.754">
        <ele>194.32</ele>
        <time>2017-08-11T15:39:42Z</time>
      </trkpt>
      <trkpt lat="44.95757" lon="0.75385">
        <ele>193.84</ele>
        <time>2017-08-11T15:39:55Z</time>
      </trkpt>
      <trkpt lat="44.95759" lon="0.7536">
        <ele>193.84</ele>
        <time>2017-08-11T15:40:09Z</time>
      </trkpt>
      <trkpt lat="44.95758" lon="0.7534">
        <ele>192.4</ele>
        <time>2017-08-11T15:40:21Z</time>
      </trkpt>
      <trkpt lat="44.95756" lon="0.75322">
        <ele>191.44</ele>
        <time>2017-08-11T15:40:34Z</time>
      </trkpt>
      <trkpt lat="44.95753" lon="0.75298">
        <ele>190</ele>
        <time>2017-08-11T15:40:49Z</time>
      </trkpt>
      <trkpt lat="44.95751" lon="0.75279">
        <ele>189.04</ele>
        <time>2017-08-11T15:41:02Z</time>
      </trkpt>
      <trkpt lat="44.95749" lon="0.75261">
        <ele>187.59</ele>
        <time>2017-08-11T15:41:14Z</time>
      </trkpt>
      <trkpt lat="44.95748" lon="0.75238">
        <ele>187.11</ele>
        <time>2017-08-11T15:41:25Z</time>
      </trkpt>
      <trkpt lat="44.95744" lon="0.75215">
        <ele>186.63</ele>
        <time>2017-08-11T15:41:40Z</time>
      </trkpt>
      <trkpt lat="44.95744" lon="0.75213">
        <ele>186.63</ele>
        <time>2017-08-11T15:41:41Z</time>
      </trkpt>
      <trkpt lat="44.95743" lon="0.75199">
        <ele>186.15</ele>
        <time>2017-08-11T15:41:54Z</time>
      </trkpt>
      <trkpt lat="44.95743" lon="0.75197">
        <ele>186.63</ele>
        <time>2017-08-11T15:42:22Z</time>
      </trkpt>
      <trkpt lat="44.95743" lon="0.75197">
        <ele>181.83</ele>
        <time>2017-08-11T15:42:26Z</time>
      </trkpt>
      <trkpt lat="44.95743" lon="0.75197">
        <ele>190.48</ele>
        <time>2017-08-11T15:42:27Z</time>
      </trkpt>
      <trkpt lat="44.95743" lon="0.75197">
        <ele>186.63</ele>
        <time>2017-08-11T15:42:28Z</time>
      </trkpt>
      <trkpt lat="44.95743" lon="0.75194">
        <ele>186.15</ele>
        <time>2017-08-11T15:42:35Z</time>
      </trkpt>
      <trkpt lat="44.9574" lon="0.7517">
        <ele>185.67</ele>
        <time>2017-08-11T15:42:49Z</time>
      </trkpt>
      <trkpt lat="44.95741" lon="0.75168">
        <ele>185.67</ele>
        <time>2017-08-11T15:42:50Z</time>
      </trkpt>
      <trkpt lat="44.95742" lon="0.75147">
        <ele>184.71</ele>
        <time>2017-08-11T15:43:02Z</time>
      </trkpt>
      <trkpt lat="44.95745" lon="0.75131">
        <ele>183.75</ele>
        <time>2017-08-11T15:43:16Z</time>
      </trkpt>
      <trkpt lat="44.95748" lon="0.75116">
        <ele>183.27</ele>
        <time>2017-08-11T15:43:28Z</time>
      </trkpt>
      <trkpt lat="44.95751" lon="0.75108">
        <ele>182.31</ele>
        <time>2017-08-11T15:43:35Z</time>
      </trkpt>
      <trkpt lat="44.95754" lon="0.75093">
        <ele>181.35</ele>
        <time>2017-08-11T15:43:45Z</time>
      </trkpt>
      <trkpt lat="44.95757" lon="0.75078">
        <ele>180.38</ele>
        <time>2017-08-11T15:43:57Z</time>
      </trkpt>
      <trkpt lat="44.95762" lon="0.75061">
        <ele>178.94</ele>
        <time>2017-08-11T15:44:11Z</time>
      </trkpt>
      <trkpt lat="44.95766" lon="0.75046">
        <ele>177.98</ele>
        <time>2017-08-11T15:44:24Z</time>
      </trkpt>
      <trkpt lat="44.9577" lon="0.75029">
        <ele>177.5</ele>
        <time>2017-08-11T15:44:37Z</time>
      </trkpt>
      <trkpt lat="44.95774" lon="0.75019">
        <ele>176.54</ele>
        <time>2017-08-11T15:44:46Z</time>
      </trkpt>
      <trkpt lat="44.95787" lon="0.75004">
        <ele>176.06</ele>
        <time>2017-08-11T15:44:59Z</time>
      </trkpt>
      <trkpt lat="44.95796" lon="0.74992">
        <ele>175.58</ele>
        <time>2017-08-11T15:45:12Z</time>
      </trkpt>
      <trkpt lat="44.95804" lon="0.74977">
        <ele>175.58</ele>
        <time>2017-08-11T15:45:24Z</time>
      </trkpt>
      <trkpt lat="44.95812" lon="0.74958">
        <ele>175.58</ele>
        <time>2017-08-11T15:45:38Z</time>
      </trkpt>
      <trkpt lat="44.95819" lon="0.74944">
        <ele>176.54</ele>
        <time>2017-08-11T15:45:52Z</time>
      </trkpt>
      <trkpt lat="44.95827" lon="0.74929">
        <ele>177.5</ele>
        <time>2017-08-11T15:46:08Z</time>
      </trkpt>
      <trkpt lat="44.95833" lon="0.74914">
        <ele>177.98</ele>
        <time>2017-08-11T15:46:20Z</time>
      </trkpt>
      <trkpt lat="44.95837" lon="0.74907">
        <ele>178.46</ele>
        <time>2017-08-11T15:46:34Z</time>
      </trkpt>
      <trkpt lat="44.95838" lon="0.74905">
        <ele>178.46</ele>
        <time>2017-08-11T15:47:00Z</time>
      </trkpt>
      <trkpt lat="44.95839" lon="0.74903">
        <ele>178.46</ele>
        <time>2017-08-11T15:47:24Z</time>
      </trkpt>
      <trkpt lat="44.9584" lon="0.74901">
        <ele>178.46</ele>
        <time>2017-08-11T15:47:52Z</time>
      </trkpt>
      <trkpt lat="44.95847" lon="0.74881">
        <ele>179.42</ele>
        <time>2017-08-11T15:48:08Z</time>
      </trkpt>
      <trkpt lat="44.95856" lon="0.7486">
        <ele>179.9</ele>
        <time>2017-08-11T15:48:22Z</time>
      </trkpt>
      <trkpt lat="44.95862" lon="0.74842">
        <ele>179.9</ele>
        <time>2017-08-11T15:48:38Z</time>
      </trkpt>
      <trkpt lat="44.95866" lon="0.74825">
        <ele>179.9</ele>
        <time>2017-08-11T15:48:51Z</time>
      </trkpt>
      <trkpt lat="44.95869" lon="0.74809">
        <ele>179.9</ele>
        <time>2017-08-11T15:49:05Z</time>
      </trkpt>
      <trkpt lat="44.95874" lon="0.74791">
        <ele>179.42</ele>
        <time>2017-08-11T15:49:19Z</time>
      </trkpt>
      <trkpt lat="44.95876" lon="0.74779">
        <ele>178.94</ele>
        <time>2017-08-11T15:49:32Z</time>
      </trkpt>
      <trkpt lat="44.95879" lon="0.74765">
        <ele>177.5</ele>
        <time>2017-08-11T15:49:44Z</time>
      </trkpt>
      <trkpt lat="44.9588" lon="0.74749">
        <ele>177.02</ele>
        <time>2017-08-11T15:49:58Z</time>
      </trkpt>
      <trkpt lat="44.9588" lon="0.74736">
        <ele>175.58</ele>
        <time>2017-08-11T15:50:10Z</time>
      </trkpt>
      <trkpt lat="44.95883" lon="0.74719">
        <ele>174.62</ele>
        <time>2017-08-11T15:50:24Z</time>
      </trkpt>
      <trkpt lat="44.95883" lon="0.74706">
        <ele>174.14</ele>
        <time>2017-08-11T15:50:36Z</time>
      </trkpt>
      <trkpt lat="44.95884" lon="0.74704">
        <ele>173.66</ele>
        <time>2017-08-11T15:50:58Z</time>
      </trkpt>
      <trkpt lat="44.95883" lon="0.74691">
        <ele>172.69</ele>
        <time>2017-08-11T15:51:13Z</time>
      </trkpt>
      <trkpt lat="44.95884" lon="0.74677">
        <ele>172.21</ele>
        <time>2017-08-11T15:51:26Z</time>
      </trkpt>
      <trkpt lat="44.95885" lon="0.74658">
        <ele>172.21</ele>
        <time>2017-08-11T15:51:37Z</time>
      </trkpt>
      <trkpt lat="44.9589" lon="0.74639">
        <ele>172.21</ele>
        <time>2017-08-11T15:51:49Z</time>
      </trkpt>
      <trkpt lat="44.95891" lon="0.74622">
        <ele>172.21</ele>
        <time>2017-08-11T15:52:01Z</time>
      </trkpt>
      <trkpt lat="44.95894" lon="0.74606">
        <ele>172.21</ele>
        <time>2017-08-11T15:52:12Z</time>
      </trkpt>
      <trkpt lat="44.95895" lon="0.74585">
        <ele>171.73</ele>
        <time>2017-08-11T15:52:26Z</time>
      </trkpt>
      <trkpt lat="44.95893" lon="0.74569">
        <ele>171.25</ele>
        <time>2017-08-11T15:52:38Z</time>
      </trkpt>
      <trkpt lat="44.9589" lon="0.74551">
        <ele>171.73</ele>
        <time>2017-08-11T15:52:51Z</time>
      </trkpt>
      <trkpt lat="44.95887" lon="0.74537">
        <ele>171.73</ele>
        <time>2017-08-11T15:53:02Z</time>
      </trkpt>
      <trkpt lat="44.95884" lon="0.74526">
        <ele>171.25</ele>
        <time>2017-08-11T15:53:08Z</time>
      </trkpt>
      <trkpt lat="44.95883" lon="0.7452">
        <ele>171.25</ele>
        <time>2017-08-11T15:53:11Z</time>
      </trkpt>
      <trkpt lat="44.9588" lon="0.74507">
        <ele>171.25</ele>
        <time>2017-08-11T15:53:21Z</time>
      </trkpt>
      <trkpt lat="44.95876" lon="0.74494">
        <ele>171.25</ele>
        <time>2017-08-11T15:53:33Z</time>
      </trkpt>
      <trkpt lat="44.9587" lon="0.7448">
        <ele>170.77</ele>
        <time>2017-08-11T15:53:47Z</time>
      </trkpt>
      <trkpt lat="44.95863" lon="0.74467">
        <ele>169.81</ele>
        <time>2017-08-11T15:54:01Z</time>
      </trkpt>
      <trkpt lat="44.95853" lon="0.74452">
        <ele>169.33</ele>
        <time>2017-08-11T15:54:16Z</time>
      </trkpt>
      <trkpt lat="44.95847" lon="0.74441">
        <ele>167.89</ele>
        <time>2017-08-11T15:54:30Z</time>
      </trkpt>
      <trkpt lat="44.95843" lon="0.7443">
        <ele>166.45</ele>
        <time>2017-08-11T15:54:44Z</time>
      </trkpt>
      <trkpt lat="44.95839" lon="0.74422">
        <ele>165</ele>
        <time>2017-08-11T15:54:57Z</time>
      </trkpt>
      <trkpt lat="44.95837" lon="0.74413">
        <ele>163.56</ele>
        <time>2017-08-11T15:55:10Z</time>
      </trkpt>
      <trkpt lat="44.95836" lon="0.74403">
        <ele>162.12</ele>
        <time>2017-08-11T15:55:25Z</time>
      </trkpt>
      <trkpt lat="44.95836" lon="0.74397">
        <ele>160.68</ele>
        <time>2017-08-11T15:55:39Z</time>
      </trkpt>
      <trkpt lat="44.95835" lon="0.74388">
        <ele>159.72</ele>
        <time>2017-08-11T15:55:53Z</time>
      </trkpt>
      <trkpt lat="44.95834" lon="0.74379">
        <ele>158.27</ele>
        <time>2017-08-11T15:56:06Z</time>
      </trkpt>
      <trkpt lat="44.95834" lon="0.74373">
        <ele>156.83</ele>
        <time>2017-08-11T15:56:19Z</time>
      </trkpt>
      <trkpt lat="44.95832" lon="0.74361">
        <ele>155.39</ele>
        <time>2017-08-11T15:56:33Z</time>
      </trkpt>
      <trkpt lat="44.95831" lon="0.7435">
        <ele>153.95</ele>
        <time>2017-08-11T15:56:47Z</time>
      </trkpt>
      <trkpt lat="44.95831" lon="0.74344">
        <ele>152.51</ele>
        <time>2017-08-11T15:57:00Z</time>
      </trkpt>
      <trkpt lat="44.95834" lon="0.74337">
        <ele>151.06</ele>
        <time>2017-08-11T15:57:13Z</time>
      </trkpt>
      <trkpt lat="44.95838" lon="0.7433">
        <ele>149.14</ele>
        <time>2017-08-11T15:57:27Z</time>
      </trkpt>
      <trkpt lat="44.95843" lon="0.74321">
        <ele>147.7</ele>
        <time>2017-08-11T15:57:45Z</time>
      </trkpt>
      <trkpt lat="44.95849" lon="0.7431">
        <ele>146.74</ele>
        <time>2017-08-11T15:58:00Z</time>
      </trkpt>
      <trkpt lat="44.9585" lon="0.74302">
        <ele>144.82</ele>
        <time>2017-08-11T15:58:07Z</time>
      </trkpt>
      <trkpt lat="44.95847" lon="0.74282">
        <ele>143.37</ele>
        <time>2017-08-11T15:58:21Z</time>
      </trkpt>
      <trkpt lat="44.95845" lon="0.74276">
        <ele>143.37</ele>
        <time>2017-08-11T15:58:26Z</time>
      </trkpt>
      <trkpt lat="44.95842" lon="0.74265">
        <ele>142.89</ele>
        <time>2017-08-11T15:58:39Z</time>
      </trkpt>
      <trkpt lat="44.95837" lon="0.74251">
        <ele>142.89</ele>
        <time>2017-08-11T15:58:52Z</time>
      </trkpt>
      <trkpt lat="44.95836" lon="0.74246">
        <ele>142.89</ele>
        <time>2017-08-11T15:58:56Z</time>
      </trkpt>
      <trkpt lat="44.95833" lon="0.74237">
        <ele>143.37</ele>
        <time>2017-08-11T15:59:03Z</time>
      </trkpt>
      <trkpt lat="44.95833" lon="0.7423">
        <ele>142.89</ele>
        <time>2017-08-11T15:59:08Z</time>
      </trkpt>
      <trkpt lat="44.9583" lon="0.74214">
        <ele>143.85</ele>
        <time>2017-08-11T15:59:20Z</time>
      </trkpt>
      <trkpt lat="44.95831" lon="0.74213">
        <ele>143.85</ele>
        <time>2017-08-11T15:59:21Z</time>
      </trkpt>
      <trkpt lat="44.95835" lon="0.74205">
        <ele>143.85</ele>
        <time>2017-08-11T15:59:30Z</time>
      </trkpt>
      <trkpt lat="44.95847" lon="0.74199">
        <ele>143.37</ele>
        <time>2017-08-11T15:59:44Z</time>
      </trkpt>
      <trkpt lat="44.95853" lon="0.74196">
        <ele>143.37</ele>
        <time>2017-08-11T15:59:50Z</time>
      </trkpt>
      <trkpt lat="44.95858" lon="0.74194">
        <ele>143.37</ele>
        <time>2017-08-11T15:59:54Z</time>
      </trkpt>
      <trkpt lat="44.95873" lon="0.74186">
        <ele>143.37</ele>
        <time>2017-08-11T16:00:09Z</time>
      </trkpt>
      <trkpt lat="44.9588" lon="0.74179">
        <ele>142.89</ele>
        <time>2017-08-11T16:00:23Z</time>
      </trkpt>
      <trkpt lat="44.9588" lon="0.74179">
        <ele>142.89</ele>
        <time>2017-08-11T16:00:39Z</time>
      </trkpt>
      <trkpt lat="44.95881" lon="0.7418">
        <ele>142.89</ele>
        <time>2017-08-11T16:00:54Z</time>
      </trkpt>
      <trkpt lat="44.95882" lon="0.7418">
        <ele>142.89</ele>
        <time>2017-08-11T16:01:12Z</time>
      </trkpt>
      <trkpt lat="44.95882" lon="0.74181">
        <ele>142.89</ele>
        <time>2017-08-11T16:01:33Z</time>
      </trkpt>
      <trkpt lat="44.95882" lon="0.74182">
        <ele>143.85</ele>
        <time>2017-08-11T16:02:01Z</time>
      </trkpt>
      <trkpt lat="44.95882" lon="0.74182">
        <ele>142.89</ele>
        <time>2017-08-11T16:02:28Z</time>
      </trkpt>
      <trkpt lat="44.95882" lon="0.74183">
        <ele>142.89</ele>
        <time>2017-08-11T16:02:58Z</time>
      </trkpt>
      <trkpt lat="44.95882" lon="0.74183">
        <ele>143.37</ele>
        <time>2017-08-11T16:03:22Z</time>
      </trkpt>
      <trkpt lat="44.95882" lon="0.74184">
        <ele>143.37</ele>
        <time>2017-08-11T16:03:51Z</time>
      </trkpt>
      <trkpt lat="44.95882" lon="0.74185">
        <ele>143.37</ele>
        <time>2017-08-11T16:04:19Z</time>
      </trkpt>
      <trkpt lat="44.95882" lon="0.74185">
        <ele>143.37</ele>
        <time>2017-08-11T16:04:46Z</time>
      </trkpt>
      <trkpt lat="44.95881" lon="0.74185">
        <ele>142.89</ele>
        <time>2017-08-11T16:05:05Z</time>
      </trkpt>
      <trkpt lat="44.95881" lon="0.74186">
        <ele>143.37</ele>
        <time>2017-08-11T16:05:29Z</time>
      </trkpt>
      <trkpt lat="44.95881" lon="0.74187">
        <ele>143.37</ele>
        <time>2017-08-11T16:05:56Z</time>
      </trkpt>
      <trkpt lat="44.95881" lon="0.74188">
        <ele>142.89</ele>
        <time>2017-08-11T16:06:19Z</time>
      </trkpt>
      <trkpt lat="44.95881" lon="0.74186">
        <ele>143.37</ele>
        <time>2017-08-11T16:06:32Z</time>
      </trkpt>
      <trkpt lat="44.95882" lon="0.74184">
        <ele>142.89</ele>
        <time>2017-08-11T16:06:34Z</time>
      </trkpt>
      <trkpt lat="44.95881" lon="0.74177">
        <ele>143.37</ele>
        <time>2017-08-11T16:06:38Z</time>
      </trkpt>
      <trkpt lat="44.95883" lon="0.74159">
        <ele>144.34</ele>
        <time>2017-08-11T16:06:49Z</time>
      </trkpt>
      <trkpt lat="44.95884" lon="0.74146">
        <ele>144.34</ele>
        <time>2017-08-11T16:06:56Z</time>
      </trkpt>
      <trkpt lat="44.95883" lon="0.74132">
        <ele>144.82</ele>
        <time>2017-08-11T16:07:04Z</time>
      </trkpt>
      <trkpt lat="44.95883" lon="0.74115">
        <ele>144.82</ele>
        <time>2017-08-11T16:07:15Z</time>
      </trkpt>
      <trkpt lat="44.95883" lon="0.74093">
        <ele>144.82</ele>
        <time>2017-08-11T16:07:29Z</time>
      </trkpt>
      <trkpt lat="44.95883" lon="0.74073">
        <ele>145.3</ele>
        <time>2017-08-11T16:07:43Z</time>
      </trkpt>
      <trkpt lat="44.95883" lon="0.74051">
        <ele>145.3</ele>
        <time>2017-08-11T16:07:57Z</time>
      </trkpt>
      <trkpt lat="44.95884" lon="0.74038">
        <ele>145.78</ele>
        <time>2017-08-11T16:08:07Z</time>
      </trkpt>
      <trkpt lat="44.95884" lon="0.74019">
        <ele>145.78</ele>
        <time>2017-08-11T16:08:19Z</time>
      </trkpt>
      <trkpt lat="44.95884" lon="0.74004">
        <ele>146.26</ele>
        <time>2017-08-11T16:08:29Z</time>
      </trkpt>
      <trkpt lat="44.95886" lon="0.73994">
        <ele>146.26</ele>
        <time>2017-08-11T16:08:35Z</time>
      </trkpt>
      <trkpt lat="44.95891" lon="0.73985">
        <ele>145.3</ele>
        <time>2017-08-11T16:08:44Z</time>
      </trkpt>
      <trkpt lat="44.9589" lon="0.73971">
        <ele>143.37</ele>
        <time>2017-08-11T16:08:56Z</time>
      </trkpt>
      <trkpt lat="44.95889" lon="0.73959">
        <ele>142.89</ele>
        <time>2017-08-11T16:09:05Z</time>
      </trkpt>
      <trkpt lat="44.95891" lon="0.73941">
        <ele>140.97</ele>
        <time>2017-08-11T16:09:18Z</time>
      </trkpt>
      <trkpt lat="44.95891" lon="0.73939">
        <ele>141.45</ele>
        <time>2017-08-11T16:09:20Z</time>
      </trkpt>
      <trkpt lat="44.95892" lon="0.73932">
        <ele>140.97</ele>
        <time>2017-08-11T16:09:24Z</time>
      </trkpt>
      <trkpt lat="44.95899" lon="0.73912">
        <ele>140.49</ele>
        <time>2017-08-11T16:09:37Z</time>
      </trkpt>
      <trkpt lat="44.95903" lon="0.73892">
        <ele>140.01</ele>
        <time>2017-08-11T16:09:52Z</time>
      </trkpt>
      <trkpt lat="44.95906" lon="0.7388">
        <ele>140.97</ele>
        <time>2017-08-11T16:10:05Z</time>
      </trkpt>
      <trkpt lat="44.95909" lon="0.73865">
        <ele>141.93</ele>
        <time>2017-08-11T16:10:19Z</time>
      </trkpt>
      <trkpt lat="44.95914" lon="0.73861">
        <ele>142.41</ele>
        <time>2017-08-11T16:10:28Z</time>
      </trkpt>
      <trkpt lat="44.95916" lon="0.73836">
        <ele>142.41</ele>
        <time>2017-08-11T16:10:43Z</time>
      </trkpt>
      <trkpt lat="44.95913" lon="0.73823">
        <ele>142.89</ele>
        <time>2017-08-11T16:10:55Z</time>
      </trkpt>
      <trkpt lat="44.9591" lon="0.73825">
        <ele>143.37</ele>
        <time>2017-08-11T16:11:12Z</time>
      </trkpt>
      <trkpt lat="44.95909" lon="0.73818">
        <ele>142.89</ele>
        <time>2017-08-11T16:11:26Z</time>
      </trkpt>
      <trkpt lat="44.95907" lon="0.73807">
        <ele>143.37</ele>
        <time>2017-08-11T16:11:42Z</time>
      </trkpt>
      <trkpt lat="44.95907" lon="0.73805">
        <ele>143.85</ele>
        <time>2017-08-11T16:11:55Z</time>
      </trkpt>
      <trkpt lat="44.95906" lon="0.73795">
        <ele>143.85</ele>
        <time>2017-08-11T16:12:10Z</time>
      </trkpt>
      <trkpt lat="44.95903" lon="0.73787">
        <ele>143.85</ele>
        <time>2017-08-11T16:12:21Z</time>
      </trkpt>
      <trkpt lat="44.95903" lon="0.73776">
        <ele>144.82</ele>
        <time>2017-08-11T16:12:30Z</time>
      </trkpt>
      <trkpt lat="44.95906" lon="0.73766">
        <ele>144.34</ele>
        <time>2017-08-11T16:12:37Z</time>
      </trkpt>
      <trkpt lat="44.95907" lon="0.73753">
        <ele>144.34</ele>
        <time>2017-08-11T16:12:46Z</time>
      </trkpt>
      <trkpt lat="44.95909" lon="0.73737">
        <ele>143.85</ele>
        <time>2017-08-11T16:12:57Z</time>
      </trkpt>
      <trkpt lat="44.95909" lon="0.73736">
        <ele>143.37</ele>
        <time>2017-08-11T16:12:58Z</time>
      </trkpt>
      <trkpt lat="44.95912" lon="0.73732">
        <ele>142.89</ele>
        <time>2017-08-11T16:13:02Z</time>
      </trkpt>
      <trkpt lat="44.95917" lon="0.73713">
        <ele>142.89</ele>
        <time>2017-08-11T16:13:16Z</time>
      </trkpt>
      <trkpt lat="44.9592" lon="0.73705">
        <ele>142.41</ele>
        <time>2017-08-11T16:13:21Z</time>
      </trkpt>
      <trkpt lat="44.95922" lon="0.737">
        <ele>142.41</ele>
        <time>2017-08-11T16:13:26Z</time>
      </trkpt>
      <trkpt lat="44.95927" lon="0.73684">
        <ele>141.45</ele>
        <time>2017-08-11T16:13:40Z</time>
      </trkpt>
      <trkpt lat="44.95928" lon="0.73683">
        <ele>141.45</ele>
        <time>2017-08-11T16:13:55Z</time>
      </trkpt>
      <trkpt lat="44.95929" lon="0.73684">
        <ele>141.45</ele>
        <time>2017-08-11T16:14:17Z</time>
      </trkpt>
      <trkpt lat="44.9593" lon="0.73685">
        <ele>141.45</ele>
        <time>2017-08-11T16:14:44Z</time>
      </trkpt>
    </trkseg>
  </trk>
</gpx>